<?xml version="1.0" encoding="UTF-8" standalone="no" ?>
<gpx xmlns="http://www.topografix.com/GPX/1/1" xmlns:xsi="http://www.w3.org/2001/XMLSchema-instance" xsi:schemaLocation="http://www.topografix.com/GPX/1/1 http://www.topografix.com/GPX/1/1/gpx.xsd" version="1.1" creator="VisuGPX - https://www.visugpx.com">
  <metadata>
    <name>marche Lauw2015</name>
    <desc><![CDATA[marche populaire Lauw 2015]]></desc>
  </metadata>
  <trk>
    <name><![CDATA[marche Lauw2015_1]]></name>
    <trkseg>
      <trkpt lat="47.75616" lon="7.01952">
        <ele>379.8</ele>
        <time>2015-08-09T08:08:52Z</time>
      </trkpt>
      <trkpt lat="47.75616" lon="7.01952">
        <ele>375</ele>
        <time>2015-08-09T08:08:52Z</time>
      </trkpt>
      <trkpt lat="47.75612" lon="7.01947">
        <ele>376.5</ele>
        <time>2015-08-09T08:08:53Z</time>
      </trkpt>
      <trkpt lat="47.75616" lon="7.01935">
        <ele>376.7</ele>
        <time>2015-08-09T08:09:08Z</time>
      </trkpt>
      <trkpt lat="47.75621" lon="7.01927">
        <ele>378</ele>
        <time>2015-08-09T08:09:15Z</time>
      </trkpt>
      <trkpt lat="47.75618" lon="7.01921">
        <ele>378.9</ele>
        <time>2015-08-09T08:09:23Z</time>
      </trkpt>
      <trkpt lat="47.75613" lon="7.01917">
        <ele>379</ele>
        <time>2015-08-09T08:09:28Z</time>
      </trkpt>
      <trkpt lat="47.75608" lon="7.01912">
        <ele>379</ele>
        <time>2015-08-09T08:09:31Z</time>
      </trkpt>
      <trkpt lat="47.7561" lon="7.01905">
        <ele>379</ele>
        <time>2015-08-09T08:09:35Z</time>
      </trkpt>
      <trkpt lat="47.75615" lon="7.01897">
        <ele>379</ele>
        <time>2015-08-09T08:09:40Z</time>
      </trkpt>
      <trkpt lat="47.75612" lon="7.01893">
        <ele>379</ele>
        <time>2015-08-09T08:10:00Z</time>
      </trkpt>
      <trkpt lat="47.75609" lon="7.01899">
        <ele>379</ele>
        <time>2015-08-09T08:10:06Z</time>
      </trkpt>
      <trkpt lat="47.75605" lon="7.01894">
        <ele>378</ele>
        <time>2015-08-09T08:10:17Z</time>
      </trkpt>
      <trkpt lat="47.756" lon="7.01894">
        <ele>378</ele>
        <time>2015-08-09T08:10:20Z</time>
      </trkpt>
      <trkpt lat="47.7559" lon="7.0189">
        <ele>378</ele>
        <time>2015-08-09T08:10:26Z</time>
      </trkpt>
      <trkpt lat="47.75593" lon="7.01884">
        <ele>378</ele>
        <time>2015-08-09T08:10:31Z</time>
      </trkpt>
      <trkpt lat="47.75601" lon="7.01882">
        <ele>378</ele>
        <time>2015-08-09T08:10:43Z</time>
      </trkpt>
      <trkpt lat="47.75606" lon="7.0188">
        <ele>378</ele>
        <time>2015-08-09T08:10:53Z</time>
      </trkpt>
      <trkpt lat="47.75611" lon="7.01874">
        <ele>378</ele>
        <time>2015-08-09T08:10:56Z</time>
      </trkpt>
      <trkpt lat="47.75614" lon="7.01867">
        <ele>378</ele>
        <time>2015-08-09T08:11:00Z</time>
      </trkpt>
      <trkpt lat="47.75625" lon="7.01861">
        <ele>378</ele>
        <time>2015-08-09T08:11:05Z</time>
      </trkpt>
      <trkpt lat="47.75635" lon="7.01854">
        <ele>378</ele>
        <time>2015-08-09T08:11:10Z</time>
      </trkpt>
      <trkpt lat="47.75638" lon="7.01849">
        <ele>378</ele>
        <time>2015-08-09T08:11:15Z</time>
      </trkpt>
      <trkpt lat="47.75652" lon="7.01845">
        <ele>376</ele>
        <time>2015-08-09T08:11:27Z</time>
      </trkpt>
      <trkpt lat="47.7565" lon="7.01837">
        <ele>371.5</ele>
        <time>2015-08-09T08:11:34Z</time>
      </trkpt>
      <trkpt lat="47.75646" lon="7.01818">
        <ele>369</ele>
        <time>2015-08-09T08:11:46Z</time>
      </trkpt>
      <trkpt lat="47.75644" lon="7.0181">
        <ele>369</ele>
        <time>2015-08-09T08:11:50Z</time>
      </trkpt>
      <trkpt lat="47.75644" lon="7.01798">
        <ele>369</ele>
        <time>2015-08-09T08:11:57Z</time>
      </trkpt>
      <trkpt lat="47.75645" lon="7.01791">
        <ele>369</ele>
        <time>2015-08-09T08:12:01Z</time>
      </trkpt>
      <trkpt lat="47.75652" lon="7.01772">
        <ele>369</ele>
        <time>2015-08-09T08:12:11Z</time>
      </trkpt>
      <trkpt lat="47.75655" lon="7.01767">
        <ele>370</ele>
        <time>2015-08-09T08:12:15Z</time>
      </trkpt>
      <trkpt lat="47.75659" lon="7.01758">
        <ele>370.7</ele>
        <time>2015-08-09T08:12:21Z</time>
      </trkpt>
      <trkpt lat="47.7566" lon="7.01751">
        <ele>370.7</ele>
        <time>2015-08-09T08:12:25Z</time>
      </trkpt>
      <trkpt lat="47.7566" lon="7.01744">
        <ele>372</ele>
        <time>2015-08-09T08:12:31Z</time>
      </trkpt>
      <trkpt lat="47.7566" lon="7.01737">
        <ele>374.3</ele>
        <time>2015-08-09T08:12:35Z</time>
      </trkpt>
      <trkpt lat="47.75662" lon="7.01729">
        <ele>375</ele>
        <time>2015-08-09T08:12:40Z</time>
      </trkpt>
      <trkpt lat="47.75664" lon="7.01722">
        <ele>376.7</ele>
        <time>2015-08-09T08:12:44Z</time>
      </trkpt>
      <trkpt lat="47.75664" lon="7.01714">
        <ele>377.5</ele>
        <time>2015-08-09T08:12:48Z</time>
      </trkpt>
      <trkpt lat="47.75672" lon="7.01705">
        <ele>377.9</ele>
        <time>2015-08-09T08:12:55Z</time>
      </trkpt>
      <trkpt lat="47.75676" lon="7.01693">
        <ele>378</ele>
        <time>2015-08-09T08:13:04Z</time>
      </trkpt>
      <trkpt lat="47.75678" lon="7.01686">
        <ele>378</ele>
        <time>2015-08-09T08:13:09Z</time>
      </trkpt>
      <trkpt lat="47.75682" lon="7.0167">
        <ele>378.9</ele>
        <time>2015-08-09T08:13:18Z</time>
      </trkpt>
      <trkpt lat="47.75677" lon="7.01666">
        <ele>379</ele>
        <time>2015-08-09T08:13:22Z</time>
      </trkpt>
      <trkpt lat="47.75671" lon="7.01664">
        <ele>379</ele>
        <time>2015-08-09T08:13:27Z</time>
      </trkpt>
      <trkpt lat="47.75664" lon="7.01661">
        <ele>378.2</ele>
        <time>2015-08-09T08:13:32Z</time>
      </trkpt>
      <trkpt lat="47.75659" lon="7.01662">
        <ele>378</ele>
        <time>2015-08-09T08:13:36Z</time>
      </trkpt>
      <trkpt lat="47.75655" lon="7.01668">
        <ele>378.8</ele>
        <time>2015-08-09T08:13:42Z</time>
      </trkpt>
      <trkpt lat="47.75644" lon="7.01673">
        <ele>379</ele>
        <time>2015-08-09T08:13:51Z</time>
      </trkpt>
      <trkpt lat="47.7564" lon="7.0167">
        <ele>379</ele>
        <time>2015-08-09T08:13:54Z</time>
      </trkpt>
      <trkpt lat="47.75636" lon="7.01667">
        <ele>379</ele>
        <time>2015-08-09T08:13:57Z</time>
      </trkpt>
      <trkpt lat="47.75626" lon="7.01664">
        <ele>379</ele>
        <time>2015-08-09T08:14:07Z</time>
      </trkpt>
      <trkpt lat="47.75617" lon="7.01656">
        <ele>379</ele>
        <time>2015-08-09T08:14:14Z</time>
      </trkpt>
      <trkpt lat="47.75608" lon="7.01649">
        <ele>379</ele>
        <time>2015-08-09T08:14:20Z</time>
      </trkpt>
      <trkpt lat="47.75604" lon="7.01644">
        <ele>379</ele>
        <time>2015-08-09T08:14:23Z</time>
      </trkpt>
      <trkpt lat="47.756" lon="7.01641">
        <ele>378</ele>
        <time>2015-08-09T08:14:26Z</time>
      </trkpt>
      <trkpt lat="47.75595" lon="7.01641">
        <ele>376.4</ele>
        <time>2015-08-09T08:14:32Z</time>
      </trkpt>
      <trkpt lat="47.75589" lon="7.0164">
        <ele>376</ele>
        <time>2015-08-09T08:14:37Z</time>
      </trkpt>
      <trkpt lat="47.75585" lon="7.01639">
        <ele>376</ele>
        <time>2015-08-09T08:14:42Z</time>
      </trkpt>
      <trkpt lat="47.75581" lon="7.01634">
        <ele>376</ele>
        <time>2015-08-09T08:14:48Z</time>
      </trkpt>
      <trkpt lat="47.75573" lon="7.01627">
        <ele>376</ele>
        <time>2015-08-09T08:14:55Z</time>
      </trkpt>
      <trkpt lat="47.7557" lon="7.01621">
        <ele>376</ele>
        <time>2015-08-09T08:15:01Z</time>
      </trkpt>
      <trkpt lat="47.75577" lon="7.01611">
        <ele>379.8</ele>
        <time>2015-08-09T08:15:07Z</time>
      </trkpt>
      <trkpt lat="47.7558" lon="7.01604">
        <ele>380</ele>
        <time>2015-08-09T08:15:10Z</time>
      </trkpt>
      <trkpt lat="47.75581" lon="7.01595">
        <ele>380</ele>
        <time>2015-08-09T08:15:14Z</time>
      </trkpt>
      <trkpt lat="47.75582" lon="7.01589">
        <ele>380.7</ele>
        <time>2015-08-09T08:15:17Z</time>
      </trkpt>
      <trkpt lat="47.75583" lon="7.01581">
        <ele>380.7</ele>
        <time>2015-08-09T08:15:22Z</time>
      </trkpt>
      <trkpt lat="47.75586" lon="7.01574">
        <ele>381</ele>
        <time>2015-08-09T08:15:25Z</time>
      </trkpt>
      <trkpt lat="47.7559" lon="7.0156">
        <ele>382</ele>
        <time>2015-08-09T08:15:34Z</time>
      </trkpt>
      <trkpt lat="47.75591" lon="7.01551">
        <ele>383</ele>
        <time>2015-08-09T08:15:39Z</time>
      </trkpt>
      <trkpt lat="47.75594" lon="7.01545">
        <ele>383</ele>
        <time>2015-08-09T08:15:43Z</time>
      </trkpt>
      <trkpt lat="47.75597" lon="7.01536">
        <ele>383</ele>
        <time>2015-08-09T08:15:48Z</time>
      </trkpt>
      <trkpt lat="47.75599" lon="7.0153">
        <ele>383</ele>
        <time>2015-08-09T08:15:52Z</time>
      </trkpt>
      <trkpt lat="47.75602" lon="7.01524">
        <ele>383.9</ele>
        <time>2015-08-09T08:15:55Z</time>
      </trkpt>
      <trkpt lat="47.75603" lon="7.01517">
        <ele>383.9</ele>
        <time>2015-08-09T08:15:58Z</time>
      </trkpt>
      <trkpt lat="47.75605" lon="7.0151">
        <ele>384</ele>
        <time>2015-08-09T08:16:02Z</time>
      </trkpt>
      <trkpt lat="47.75612" lon="7.01498">
        <ele>384</ele>
        <time>2015-08-09T08:16:10Z</time>
      </trkpt>
      <trkpt lat="47.75618" lon="7.01486">
        <ele>384</ele>
        <time>2015-08-09T08:16:21Z</time>
      </trkpt>
      <trkpt lat="47.75626" lon="7.0147">
        <ele>384</ele>
        <time>2015-08-09T08:16:30Z</time>
      </trkpt>
      <trkpt lat="47.75629" lon="7.01463">
        <ele>384</ele>
        <time>2015-08-09T08:16:34Z</time>
      </trkpt>
      <trkpt lat="47.75632" lon="7.01456">
        <ele>383.8</ele>
        <time>2015-08-09T08:16:38Z</time>
      </trkpt>
      <trkpt lat="47.75636" lon="7.01451">
        <ele>384</ele>
        <time>2015-08-09T08:16:42Z</time>
      </trkpt>
      <trkpt lat="47.75639" lon="7.01445">
        <ele>384</ele>
        <time>2015-08-09T08:16:46Z</time>
      </trkpt>
      <trkpt lat="47.75643" lon="7.0144">
        <ele>384</ele>
        <time>2015-08-09T08:16:50Z</time>
      </trkpt>
      <trkpt lat="47.75652" lon="7.01433">
        <ele>384</ele>
        <time>2015-08-09T08:17:00Z</time>
      </trkpt>
      <trkpt lat="47.75663" lon="7.01421">
        <ele>384</ele>
        <time>2015-08-09T08:17:09Z</time>
      </trkpt>
      <trkpt lat="47.75667" lon="7.01416">
        <ele>384</ele>
        <time>2015-08-09T08:17:13Z</time>
      </trkpt>
      <trkpt lat="47.7567" lon="7.0141">
        <ele>384.9</ele>
        <time>2015-08-09T08:17:17Z</time>
      </trkpt>
      <trkpt lat="47.75673" lon="7.01395">
        <ele>386</ele>
        <time>2015-08-09T08:17:24Z</time>
      </trkpt>
      <trkpt lat="47.75676" lon="7.01389">
        <ele>386</ele>
        <time>2015-08-09T08:17:27Z</time>
      </trkpt>
      <trkpt lat="47.75685" lon="7.01384">
        <ele>386.8</ele>
        <time>2015-08-09T08:17:33Z</time>
      </trkpt>
      <trkpt lat="47.75686" lon="7.01376">
        <ele>387</ele>
        <time>2015-08-09T08:17:39Z</time>
      </trkpt>
      <trkpt lat="47.75688" lon="7.01358">
        <ele>387</ele>
        <time>2015-08-09T08:17:48Z</time>
      </trkpt>
      <trkpt lat="47.7569" lon="7.01352">
        <ele>387</ele>
        <time>2015-08-09T08:17:52Z</time>
      </trkpt>
      <trkpt lat="47.75693" lon="7.01345">
        <ele>387</ele>
        <time>2015-08-09T08:17:57Z</time>
      </trkpt>
      <trkpt lat="47.75695" lon="7.01338">
        <ele>387</ele>
        <time>2015-08-09T08:18:01Z</time>
      </trkpt>
      <trkpt lat="47.75694" lon="7.0133">
        <ele>387</ele>
        <time>2015-08-09T08:18:06Z</time>
      </trkpt>
      <trkpt lat="47.7569" lon="7.01317">
        <ele>387</ele>
        <time>2015-08-09T08:18:13Z</time>
      </trkpt>
      <trkpt lat="47.75689" lon="7.0131">
        <ele>387.5</ele>
        <time>2015-08-09T08:18:19Z</time>
      </trkpt>
      <trkpt lat="47.7569" lon="7.01302">
        <ele>388</ele>
        <time>2015-08-09T08:18:24Z</time>
      </trkpt>
      <trkpt lat="47.75689" lon="7.01294">
        <ele>388.5</ele>
        <time>2015-08-09T08:18:29Z</time>
      </trkpt>
      <trkpt lat="47.75691" lon="7.01287">
        <ele>388.9</ele>
        <time>2015-08-09T08:18:33Z</time>
      </trkpt>
      <trkpt lat="47.75696" lon="7.01276">
        <ele>389</ele>
        <time>2015-08-09T08:18:38Z</time>
      </trkpt>
      <trkpt lat="47.75701" lon="7.01265">
        <ele>389</ele>
        <time>2015-08-09T08:18:43Z</time>
      </trkpt>
      <trkpt lat="47.75705" lon="7.01261">
        <ele>389</ele>
        <time>2015-08-09T08:18:47Z</time>
      </trkpt>
      <trkpt lat="47.75707" lon="7.01254">
        <ele>390</ele>
        <time>2015-08-09T08:18:53Z</time>
      </trkpt>
      <trkpt lat="47.75709" lon="7.01241">
        <ele>390</ele>
        <time>2015-08-09T08:19:02Z</time>
      </trkpt>
      <trkpt lat="47.75714" lon="7.01232">
        <ele>390.9</ele>
        <time>2015-08-09T08:19:08Z</time>
      </trkpt>
      <trkpt lat="47.75717" lon="7.01226">
        <ele>390.9</ele>
        <time>2015-08-09T08:19:11Z</time>
      </trkpt>
      <trkpt lat="47.75721" lon="7.01214">
        <ele>391.9</ele>
        <time>2015-08-09T08:19:17Z</time>
      </trkpt>
      <trkpt lat="47.75719" lon="7.01202">
        <ele>393.5</ele>
        <time>2015-08-09T08:19:23Z</time>
      </trkpt>
      <trkpt lat="47.7572" lon="7.01194">
        <ele>393.5</ele>
        <time>2015-08-09T08:19:27Z</time>
      </trkpt>
      <trkpt lat="47.75719" lon="7.01186">
        <ele>395.2</ele>
        <time>2015-08-09T08:19:33Z</time>
      </trkpt>
      <trkpt lat="47.75718" lon="7.01172">
        <ele>398</ele>
        <time>2015-08-09T08:19:40Z</time>
      </trkpt>
      <trkpt lat="47.75715" lon="7.01154">
        <ele>398</ele>
        <time>2015-08-09T08:19:48Z</time>
      </trkpt>
      <trkpt lat="47.75715" lon="7.01139">
        <ele>399</ele>
        <time>2015-08-09T08:19:56Z</time>
      </trkpt>
      <trkpt lat="47.75717" lon="7.01125">
        <ele>400.9</ele>
        <time>2015-08-09T08:20:03Z</time>
      </trkpt>
      <trkpt lat="47.75732" lon="7.01112">
        <ele>401</ele>
        <time>2015-08-09T08:20:09Z</time>
      </trkpt>
      <trkpt lat="47.75742" lon="7.01107">
        <ele>401.5</ele>
        <time>2015-08-09T08:20:13Z</time>
      </trkpt>
      <trkpt lat="47.75742" lon="7.01097">
        <ele>402</ele>
        <time>2015-08-09T08:20:19Z</time>
      </trkpt>
      <trkpt lat="47.75744" lon="7.0109">
        <ele>402</ele>
        <time>2015-08-09T08:20:23Z</time>
      </trkpt>
      <trkpt lat="47.75748" lon="7.01078">
        <ele>402</ele>
        <time>2015-08-09T08:20:32Z</time>
      </trkpt>
      <trkpt lat="47.75753" lon="7.01074">
        <ele>402</ele>
        <time>2015-08-09T08:20:37Z</time>
      </trkpt>
      <trkpt lat="47.75757" lon="7.01071">
        <ele>402</ele>
        <time>2015-08-09T08:20:46Z</time>
      </trkpt>
      <trkpt lat="47.75762" lon="7.01069">
        <ele>402</ele>
        <time>2015-08-09T08:20:58Z</time>
      </trkpt>
      <trkpt lat="47.7577" lon="7.01072">
        <ele>401</ele>
        <time>2015-08-09T08:21:05Z</time>
      </trkpt>
      <trkpt lat="47.75774" lon="7.01074">
        <ele>401</ele>
        <time>2015-08-09T08:21:08Z</time>
      </trkpt>
      <trkpt lat="47.75787" lon="7.01081">
        <ele>401</ele>
        <time>2015-08-09T08:21:16Z</time>
      </trkpt>
      <trkpt lat="47.75797" lon="7.0108">
        <ele>401.9</ele>
        <time>2015-08-09T08:21:22Z</time>
      </trkpt>
      <trkpt lat="47.75802" lon="7.01077">
        <ele>402</ele>
        <time>2015-08-09T08:21:27Z</time>
      </trkpt>
      <trkpt lat="47.75806" lon="7.01072">
        <ele>402</ele>
        <time>2015-08-09T08:21:33Z</time>
      </trkpt>
      <trkpt lat="47.75814" lon="7.01063">
        <ele>402.9</ele>
        <time>2015-08-09T08:21:40Z</time>
      </trkpt>
      <trkpt lat="47.75817" lon="7.01058">
        <ele>403</ele>
        <time>2015-08-09T08:21:43Z</time>
      </trkpt>
      <trkpt lat="47.75828" lon="7.01043">
        <ele>403</ele>
        <time>2015-08-09T08:21:51Z</time>
      </trkpt>
      <trkpt lat="47.75839" lon="7.01031">
        <ele>405</ele>
        <time>2015-08-09T08:22:05Z</time>
      </trkpt>
      <trkpt lat="47.75844" lon="7.01029">
        <ele>405</ele>
        <time>2015-08-09T08:22:10Z</time>
      </trkpt>
      <trkpt lat="47.75848" lon="7.01024">
        <ele>405</ele>
        <time>2015-08-09T08:22:14Z</time>
      </trkpt>
      <trkpt lat="47.75852" lon="7.01019">
        <ele>405</ele>
        <time>2015-08-09T08:22:18Z</time>
      </trkpt>
      <trkpt lat="47.75858" lon="7.01008">
        <ele>405</ele>
        <time>2015-08-09T08:22:28Z</time>
      </trkpt>
      <trkpt lat="47.75866" lon="7.01001">
        <ele>405</ele>
        <time>2015-08-09T08:22:36Z</time>
      </trkpt>
      <trkpt lat="47.75871" lon="7.00995">
        <ele>405</ele>
        <time>2015-08-09T08:22:41Z</time>
      </trkpt>
      <trkpt lat="47.75875" lon="7.00991">
        <ele>405</ele>
        <time>2015-08-09T08:22:45Z</time>
      </trkpt>
      <trkpt lat="47.7588" lon="7.00986">
        <ele>404.1</ele>
        <time>2015-08-09T08:22:50Z</time>
      </trkpt>
      <trkpt lat="47.75883" lon="7.0098">
        <ele>404</ele>
        <time>2015-08-09T08:22:56Z</time>
      </trkpt>
      <trkpt lat="47.75883" lon="7.00971">
        <ele>403</ele>
        <time>2015-08-09T08:23:04Z</time>
      </trkpt>
      <trkpt lat="47.75888" lon="7.00959">
        <ele>403</ele>
        <time>2015-08-09T08:23:12Z</time>
      </trkpt>
      <trkpt lat="47.75901" lon="7.00949">
        <ele>403</ele>
        <time>2015-08-09T08:23:19Z</time>
      </trkpt>
      <trkpt lat="47.75906" lon="7.00947">
        <ele>403</ele>
        <time>2015-08-09T08:23:22Z</time>
      </trkpt>
      <trkpt lat="47.75917" lon="7.00942">
        <ele>403</ele>
        <time>2015-08-09T08:23:29Z</time>
      </trkpt>
      <trkpt lat="47.75925" lon="7.00936">
        <ele>403.5</ele>
        <time>2015-08-09T08:23:38Z</time>
      </trkpt>
      <trkpt lat="47.7593" lon="7.00933">
        <ele>404.5</ele>
        <time>2015-08-09T08:23:44Z</time>
      </trkpt>
      <trkpt lat="47.75935" lon="7.00932">
        <ele>406.9</ele>
        <time>2015-08-09T08:23:49Z</time>
      </trkpt>
      <trkpt lat="47.75944" lon="7.00926">
        <ele>408</ele>
        <time>2015-08-09T08:23:56Z</time>
      </trkpt>
      <trkpt lat="47.75947" lon="7.00921">
        <ele>408</ele>
        <time>2015-08-09T08:24:00Z</time>
      </trkpt>
      <trkpt lat="47.75952" lon="7.00918">
        <ele>409.8</ele>
        <time>2015-08-09T08:24:05Z</time>
      </trkpt>
      <trkpt lat="47.75958" lon="7.00917">
        <ele>412.9</ele>
        <time>2015-08-09T08:24:10Z</time>
      </trkpt>
      <trkpt lat="47.75962" lon="7.00912">
        <ele>412.9</ele>
        <time>2015-08-09T08:24:14Z</time>
      </trkpt>
      <trkpt lat="47.75968" lon="7.00907">
        <ele>413</ele>
        <time>2015-08-09T08:24:17Z</time>
      </trkpt>
      <trkpt lat="47.75971" lon="7.00903">
        <ele>413</ele>
        <time>2015-08-09T08:24:20Z</time>
      </trkpt>
      <trkpt lat="47.75975" lon="7.00899">
        <ele>413.9</ele>
        <time>2015-08-09T08:24:24Z</time>
      </trkpt>
      <trkpt lat="47.75983" lon="7.00891">
        <ele>414</ele>
        <time>2015-08-09T08:24:33Z</time>
      </trkpt>
      <trkpt lat="47.75985" lon="7.00884">
        <ele>414.5</ele>
        <time>2015-08-09T08:24:37Z</time>
      </trkpt>
      <trkpt lat="47.75988" lon="7.0087">
        <ele>415</ele>
        <time>2015-08-09T08:24:45Z</time>
      </trkpt>
      <trkpt lat="47.7599" lon="7.00863">
        <ele>416.6</ele>
        <time>2015-08-09T08:24:49Z</time>
      </trkpt>
      <trkpt lat="47.75993" lon="7.00856">
        <ele>417</ele>
        <time>2015-08-09T08:24:53Z</time>
      </trkpt>
      <trkpt lat="47.75996" lon="7.00848">
        <ele>417</ele>
        <time>2015-08-09T08:24:56Z</time>
      </trkpt>
      <trkpt lat="47.76" lon="7.00835">
        <ele>417</ele>
        <time>2015-08-09T08:25:03Z</time>
      </trkpt>
      <trkpt lat="47.76004" lon="7.0083">
        <ele>417.9</ele>
        <time>2015-08-09T08:25:06Z</time>
      </trkpt>
      <trkpt lat="47.76003" lon="7.00822">
        <ele>418</ele>
        <time>2015-08-09T08:25:10Z</time>
      </trkpt>
      <trkpt lat="47.76003" lon="7.00814">
        <ele>418</ele>
        <time>2015-08-09T08:25:15Z</time>
      </trkpt>
      <trkpt lat="47.76005" lon="7.00801">
        <ele>418</ele>
        <time>2015-08-09T08:25:23Z</time>
      </trkpt>
      <trkpt lat="47.76004" lon="7.00795">
        <ele>417.5</ele>
        <time>2015-08-09T08:25:27Z</time>
      </trkpt>
      <trkpt lat="47.76004" lon="7.00788">
        <ele>417</ele>
        <time>2015-08-09T08:25:32Z</time>
      </trkpt>
      <trkpt lat="47.76005" lon="7.00781">
        <ele>417</ele>
        <time>2015-08-09T08:25:36Z</time>
      </trkpt>
      <trkpt lat="47.76011" lon="7.0077">
        <ele>417</ele>
        <time>2015-08-09T08:25:41Z</time>
      </trkpt>
      <trkpt lat="47.76023" lon="7.00757">
        <ele>417</ele>
        <time>2015-08-09T08:25:46Z</time>
      </trkpt>
      <trkpt lat="47.76026" lon="7.00751">
        <ele>416.1</ele>
        <time>2015-08-09T08:25:49Z</time>
      </trkpt>
      <trkpt lat="47.76026" lon="7.00737">
        <ele>416</ele>
        <time>2015-08-09T08:26:00Z</time>
      </trkpt>
      <trkpt lat="47.7603" lon="7.00731">
        <ele>411.8</ele>
        <time>2015-08-09T08:26:07Z</time>
      </trkpt>
      <trkpt lat="47.76034" lon="7.00726">
        <ele>411</ele>
        <time>2015-08-09T08:26:12Z</time>
      </trkpt>
      <trkpt lat="47.76044" lon="7.00723">
        <ele>411</ele>
        <time>2015-08-09T08:26:20Z</time>
      </trkpt>
      <trkpt lat="47.76056" lon="7.00714">
        <ele>410.2</ele>
        <time>2015-08-09T08:26:27Z</time>
      </trkpt>
      <trkpt lat="47.7606" lon="7.00709">
        <ele>410</ele>
        <time>2015-08-09T08:26:30Z</time>
      </trkpt>
      <trkpt lat="47.76069" lon="7.00704">
        <ele>409.1</ele>
        <time>2015-08-09T08:26:36Z</time>
      </trkpt>
      <trkpt lat="47.76078" lon="7.00697">
        <ele>408</ele>
        <time>2015-08-09T08:26:44Z</time>
      </trkpt>
      <trkpt lat="47.76086" lon="7.00687">
        <ele>408</ele>
        <time>2015-08-09T08:26:51Z</time>
      </trkpt>
      <trkpt lat="47.76095" lon="7.00684">
        <ele>407</ele>
        <time>2015-08-09T08:27:03Z</time>
      </trkpt>
      <trkpt lat="47.76099" lon="7.00681">
        <ele>407</ele>
        <time>2015-08-09T08:27:08Z</time>
      </trkpt>
      <trkpt lat="47.76113" lon="7.00682">
        <ele>407</ele>
        <time>2015-08-09T08:27:14Z</time>
      </trkpt>
      <trkpt lat="47.76123" lon="7.00674">
        <ele>406</ele>
        <time>2015-08-09T08:27:27Z</time>
      </trkpt>
      <trkpt lat="47.76127" lon="7.0067">
        <ele>406</ele>
        <time>2015-08-09T08:27:32Z</time>
      </trkpt>
      <trkpt lat="47.76141" lon="7.00665">
        <ele>407</ele>
        <time>2015-08-09T08:27:45Z</time>
      </trkpt>
      <trkpt lat="47.76146" lon="7.00662">
        <ele>407</ele>
        <time>2015-08-09T08:27:49Z</time>
      </trkpt>
      <trkpt lat="47.76151" lon="7.00655">
        <ele>407.9</ele>
        <time>2015-08-09T08:27:55Z</time>
      </trkpt>
      <trkpt lat="47.76156" lon="7.00652">
        <ele>407.9</ele>
        <time>2015-08-09T08:27:59Z</time>
      </trkpt>
      <trkpt lat="47.76161" lon="7.00649">
        <ele>409</ele>
        <time>2015-08-09T08:28:03Z</time>
      </trkpt>
      <trkpt lat="47.76167" lon="7.00648">
        <ele>409</ele>
        <time>2015-08-09T08:28:06Z</time>
      </trkpt>
      <trkpt lat="47.76176" lon="7.00643">
        <ele>409.5</ele>
        <time>2015-08-09T08:28:14Z</time>
      </trkpt>
      <trkpt lat="47.76181" lon="7.00644">
        <ele>410</ele>
        <time>2015-08-09T08:28:17Z</time>
      </trkpt>
      <trkpt lat="47.76187" lon="7.00643">
        <ele>410</ele>
        <time>2015-08-09T08:28:21Z</time>
      </trkpt>
      <trkpt lat="47.76193" lon="7.00638">
        <ele>410</ele>
        <time>2015-08-09T08:28:26Z</time>
      </trkpt>
      <trkpt lat="47.76199" lon="7.00637">
        <ele>410</ele>
        <time>2015-08-09T08:28:29Z</time>
      </trkpt>
      <trkpt lat="47.76203" lon="7.00631">
        <ele>410</ele>
        <time>2015-08-09T08:28:36Z</time>
      </trkpt>
      <trkpt lat="47.76205" lon="7.00611">
        <ele>410</ele>
        <time>2015-08-09T08:28:47Z</time>
      </trkpt>
      <trkpt lat="47.76208" lon="7.00606">
        <ele>409.1</ele>
        <time>2015-08-09T08:28:51Z</time>
      </trkpt>
      <trkpt lat="47.76215" lon="7.00599">
        <ele>409</ele>
        <time>2015-08-09T08:28:58Z</time>
      </trkpt>
      <trkpt lat="47.76219" lon="7.00593">
        <ele>409</ele>
        <time>2015-08-09T08:29:02Z</time>
      </trkpt>
      <trkpt lat="47.76226" lon="7.00574">
        <ele>409</ele>
        <time>2015-08-09T08:29:14Z</time>
      </trkpt>
      <trkpt lat="47.76231" lon="7.00571">
        <ele>408.1</ele>
        <time>2015-08-09T08:29:17Z</time>
      </trkpt>
      <trkpt lat="47.76237" lon="7.00569">
        <ele>408</ele>
        <time>2015-08-09T08:29:22Z</time>
      </trkpt>
      <trkpt lat="47.76241" lon="7.0057">
        <ele>408</ele>
        <time>2015-08-09T08:29:26Z</time>
      </trkpt>
      <trkpt lat="47.76256" lon="7.00568">
        <ele>408</ele>
        <time>2015-08-09T08:29:38Z</time>
      </trkpt>
      <trkpt lat="47.7626" lon="7.00566">
        <ele>407.1</ele>
        <time>2015-08-09T08:29:42Z</time>
      </trkpt>
      <trkpt lat="47.76265" lon="7.00564">
        <ele>407</ele>
        <time>2015-08-09T08:29:47Z</time>
      </trkpt>
      <trkpt lat="47.76273" lon="7.00554">
        <ele>407</ele>
        <time>2015-08-09T08:29:56Z</time>
      </trkpt>
      <trkpt lat="47.76278" lon="7.00553">
        <ele>407</ele>
        <time>2015-08-09T08:30:00Z</time>
      </trkpt>
      <trkpt lat="47.76282" lon="7.00551">
        <ele>407</ele>
        <time>2015-08-09T08:30:06Z</time>
      </trkpt>
      <trkpt lat="47.76288" lon="7.0055">
        <ele>407</ele>
        <time>2015-08-09T08:30:17Z</time>
      </trkpt>
      <trkpt lat="47.76297" lon="7.00543">
        <ele>407</ele>
        <time>2015-08-09T08:30:24Z</time>
      </trkpt>
      <trkpt lat="47.76305" lon="7.00527">
        <ele>407</ele>
        <time>2015-08-09T08:30:33Z</time>
      </trkpt>
      <trkpt lat="47.76308" lon="7.00519">
        <ele>408</ele>
        <time>2015-08-09T08:30:37Z</time>
      </trkpt>
      <trkpt lat="47.76311" lon="7.00514">
        <ele>408</ele>
        <time>2015-08-09T08:30:40Z</time>
      </trkpt>
      <trkpt lat="47.7632" lon="7.00504">
        <ele>408</ele>
        <time>2015-08-09T08:30:48Z</time>
      </trkpt>
      <trkpt lat="47.76326" lon="7.00493">
        <ele>408</ele>
        <time>2015-08-09T08:30:54Z</time>
      </trkpt>
      <trkpt lat="47.76332" lon="7.00485">
        <ele>408</ele>
        <time>2015-08-09T08:30:59Z</time>
      </trkpt>
      <trkpt lat="47.76337" lon="7.00465">
        <ele>408</ele>
        <time>2015-08-09T08:31:09Z</time>
      </trkpt>
      <trkpt lat="47.7634" lon="7.00457">
        <ele>407</ele>
        <time>2015-08-09T08:31:19Z</time>
      </trkpt>
      <trkpt lat="47.76344" lon="7.00452">
        <ele>406.3</ele>
        <time>2015-08-09T08:31:24Z</time>
      </trkpt>
      <trkpt lat="47.76346" lon="7.00445">
        <ele>406</ele>
        <time>2015-08-09T08:31:31Z</time>
      </trkpt>
      <trkpt lat="47.76348" lon="7.00439">
        <ele>405.1</ele>
        <time>2015-08-09T08:31:38Z</time>
      </trkpt>
      <trkpt lat="47.76358" lon="7.00424">
        <ele>405.5</ele>
        <time>2015-08-09T08:31:50Z</time>
      </trkpt>
      <trkpt lat="47.76359" lon="7.00417">
        <ele>406</ele>
        <time>2015-08-09T08:31:54Z</time>
      </trkpt>
      <trkpt lat="47.76359" lon="7.00409">
        <ele>406</ele>
        <time>2015-08-09T08:32:00Z</time>
      </trkpt>
      <trkpt lat="47.76364" lon="7.00396">
        <ele>407</ele>
        <time>2015-08-09T08:32:09Z</time>
      </trkpt>
      <trkpt lat="47.76366" lon="7.00385">
        <ele>409</ele>
        <time>2015-08-09T08:32:17Z</time>
      </trkpt>
      <trkpt lat="47.7637" lon="7.00379">
        <ele>410</ele>
        <time>2015-08-09T08:32:23Z</time>
      </trkpt>
      <trkpt lat="47.76374" lon="7.00374">
        <ele>410</ele>
        <time>2015-08-09T08:32:27Z</time>
      </trkpt>
      <trkpt lat="47.76378" lon="7.00368">
        <ele>411</ele>
        <time>2015-08-09T08:32:32Z</time>
      </trkpt>
      <trkpt lat="47.76381" lon="7.00362">
        <ele>412</ele>
        <time>2015-08-09T08:32:35Z</time>
      </trkpt>
      <trkpt lat="47.76383" lon="7.00354">
        <ele>412</ele>
        <time>2015-08-09T08:32:39Z</time>
      </trkpt>
      <trkpt lat="47.76386" lon="7.00348">
        <ele>412</ele>
        <time>2015-08-09T08:32:44Z</time>
      </trkpt>
      <trkpt lat="47.76389" lon="7.00343">
        <ele>412</ele>
        <time>2015-08-09T08:32:49Z</time>
      </trkpt>
      <trkpt lat="47.76394" lon="7.00336">
        <ele>413</ele>
        <time>2015-08-09T08:32:53Z</time>
      </trkpt>
      <trkpt lat="47.76396" lon="7.00329">
        <ele>413</ele>
        <time>2015-08-09T08:32:57Z</time>
      </trkpt>
      <trkpt lat="47.76403" lon="7.00324">
        <ele>413</ele>
        <time>2015-08-09T08:33:02Z</time>
      </trkpt>
      <trkpt lat="47.76406" lon="7.0032">
        <ele>413.8</ele>
        <time>2015-08-09T08:33:05Z</time>
      </trkpt>
      <trkpt lat="47.76412" lon="7.0031">
        <ele>415</ele>
        <time>2015-08-09T08:33:16Z</time>
      </trkpt>
      <trkpt lat="47.76419" lon="7.00303">
        <ele>415.5</ele>
        <time>2015-08-09T08:33:24Z</time>
      </trkpt>
      <trkpt lat="47.76424" lon="7.00298">
        <ele>416</ele>
        <time>2015-08-09T08:33:31Z</time>
      </trkpt>
      <trkpt lat="47.76427" lon="7.00293">
        <ele>416.5</ele>
        <time>2015-08-09T08:33:38Z</time>
      </trkpt>
      <trkpt lat="47.76428" lon="7.00286">
        <ele>419.9</ele>
        <time>2015-08-09T08:33:44Z</time>
      </trkpt>
      <trkpt lat="47.76433" lon="7.00281">
        <ele>419.9</ele>
        <time>2015-08-09T08:33:48Z</time>
      </trkpt>
      <trkpt lat="47.76441" lon="7.00272">
        <ele>421.9</ele>
        <time>2015-08-09T08:33:56Z</time>
      </trkpt>
      <trkpt lat="47.76444" lon="7.00264">
        <ele>423.9</ele>
        <time>2015-08-09T08:34:01Z</time>
      </trkpt>
      <trkpt lat="47.76451" lon="7.00253">
        <ele>424.5</ele>
        <time>2015-08-09T08:34:10Z</time>
      </trkpt>
      <trkpt lat="47.76458" lon="7.00242">
        <ele>425</ele>
        <time>2015-08-09T08:34:19Z</time>
      </trkpt>
      <trkpt lat="47.76461" lon="7.00236">
        <ele>425.9</ele>
        <time>2015-08-09T08:34:24Z</time>
      </trkpt>
      <trkpt lat="47.76466" lon="7.00229">
        <ele>426</ele>
        <time>2015-08-09T08:34:30Z</time>
      </trkpt>
      <trkpt lat="47.76472" lon="7.00226">
        <ele>426</ele>
        <time>2015-08-09T08:34:34Z</time>
      </trkpt>
      <trkpt lat="47.76476" lon="7.00221">
        <ele>426</ele>
        <time>2015-08-09T08:34:40Z</time>
      </trkpt>
      <trkpt lat="47.7648" lon="7.00215">
        <ele>426</ele>
        <time>2015-08-09T08:34:45Z</time>
      </trkpt>
      <trkpt lat="47.76494" lon="7.00212">
        <ele>426</ele>
        <time>2015-08-09T08:34:55Z</time>
      </trkpt>
      <trkpt lat="47.76494" lon="7.00204">
        <ele>423.8</ele>
        <time>2015-08-09T08:34:59Z</time>
      </trkpt>
      <trkpt lat="47.76501" lon="7.00186">
        <ele>422</ele>
        <time>2015-08-09T08:35:18Z</time>
      </trkpt>
      <trkpt lat="47.76503" lon="7.00176">
        <ele>422</ele>
        <time>2015-08-09T08:35:24Z</time>
      </trkpt>
      <trkpt lat="47.76508" lon="7.00172">
        <ele>421.1</ele>
        <time>2015-08-09T08:35:31Z</time>
      </trkpt>
      <trkpt lat="47.76511" lon="7.00163">
        <ele>421</ele>
        <time>2015-08-09T08:35:38Z</time>
      </trkpt>
      <trkpt lat="47.76512" lon="7.00155">
        <ele>421</ele>
        <time>2015-08-09T08:35:42Z</time>
      </trkpt>
      <trkpt lat="47.76521" lon="7.00149">
        <ele>421</ele>
        <time>2015-08-09T08:35:54Z</time>
      </trkpt>
      <trkpt lat="47.76524" lon="7.00135">
        <ele>420</ele>
        <time>2015-08-09T08:36:04Z</time>
      </trkpt>
      <trkpt lat="47.76529" lon="7.00121">
        <ele>420</ele>
        <time>2015-08-09T08:36:12Z</time>
      </trkpt>
      <trkpt lat="47.76532" lon="7.00114">
        <ele>420</ele>
        <time>2015-08-09T08:36:15Z</time>
      </trkpt>
      <trkpt lat="47.76536" lon="7.0011">
        <ele>420</ele>
        <time>2015-08-09T08:36:19Z</time>
      </trkpt>
      <trkpt lat="47.76538" lon="7.00095">
        <ele>420</ele>
        <time>2015-08-09T08:36:25Z</time>
      </trkpt>
      <trkpt lat="47.76539" lon="7.00086">
        <ele>420</ele>
        <time>2015-08-09T08:36:29Z</time>
      </trkpt>
      <trkpt lat="47.76542" lon="7.0008">
        <ele>420.9</ele>
        <time>2015-08-09T08:36:32Z</time>
      </trkpt>
      <trkpt lat="47.76544" lon="7.00073">
        <ele>423</ele>
        <time>2015-08-09T08:36:38Z</time>
      </trkpt>
      <trkpt lat="47.76548" lon="7.00065">
        <ele>423</ele>
        <time>2015-08-09T08:36:42Z</time>
      </trkpt>
      <trkpt lat="47.7655" lon="7.00058">
        <ele>423</ele>
        <time>2015-08-09T08:36:48Z</time>
      </trkpt>
      <trkpt lat="47.76555" lon="7.00057">
        <ele>425.7</ele>
        <time>2015-08-09T08:36:56Z</time>
      </trkpt>
      <trkpt lat="47.76557" lon="7.00044">
        <ele>428</ele>
        <time>2015-08-09T08:37:04Z</time>
      </trkpt>
      <trkpt lat="47.76559" lon="7.00035">
        <ele>428</ele>
        <time>2015-08-09T08:37:07Z</time>
      </trkpt>
      <trkpt lat="47.76561" lon="7.00029">
        <ele>428</ele>
        <time>2015-08-09T08:37:11Z</time>
      </trkpt>
      <trkpt lat="47.76568" lon="7.00019">
        <ele>428</ele>
        <time>2015-08-09T08:37:20Z</time>
      </trkpt>
      <trkpt lat="47.76569" lon="7.0001">
        <ele>428</ele>
        <time>2015-08-09T08:37:24Z</time>
      </trkpt>
      <trkpt lat="47.76569" lon="7.00003">
        <ele>428</ele>
        <time>2015-08-09T08:37:27Z</time>
      </trkpt>
      <trkpt lat="47.76571" lon="6.9999">
        <ele>428</ele>
        <time>2015-08-09T08:37:34Z</time>
      </trkpt>
      <trkpt lat="47.76572" lon="6.99979">
        <ele>428</ele>
        <time>2015-08-09T08:37:40Z</time>
      </trkpt>
      <trkpt lat="47.76577" lon="6.99967">
        <ele>427</ele>
        <time>2015-08-09T08:37:50Z</time>
      </trkpt>
      <trkpt lat="47.76579" lon="6.9996">
        <ele>427</ele>
        <time>2015-08-09T08:37:53Z</time>
      </trkpt>
      <trkpt lat="47.76582" lon="6.99947">
        <ele>427</ele>
        <time>2015-08-09T08:37:59Z</time>
      </trkpt>
      <trkpt lat="47.76583" lon="6.99934">
        <ele>427</ele>
        <time>2015-08-09T08:38:05Z</time>
      </trkpt>
      <trkpt lat="47.76587" lon="6.9993">
        <ele>427</ele>
        <time>2015-08-09T08:38:13Z</time>
      </trkpt>
      <trkpt lat="47.76593" lon="6.99914">
        <ele>426</ele>
        <time>2015-08-09T08:38:20Z</time>
      </trkpt>
      <trkpt lat="47.76592" lon="6.99899">
        <ele>427</ele>
        <time>2015-08-09T08:38:27Z</time>
      </trkpt>
      <trkpt lat="47.76602" lon="6.99883">
        <ele>427</ele>
        <time>2015-08-09T08:38:34Z</time>
      </trkpt>
      <trkpt lat="47.76601" lon="6.99866">
        <ele>428.7</ele>
        <time>2015-08-09T08:38:46Z</time>
      </trkpt>
      <trkpt lat="47.7661" lon="6.9985">
        <ele>429</ele>
        <time>2015-08-09T08:38:55Z</time>
      </trkpt>
      <trkpt lat="47.76615" lon="6.99846">
        <ele>430</ele>
        <time>2015-08-09T08:39:00Z</time>
      </trkpt>
      <trkpt lat="47.76623" lon="6.99837">
        <ele>432</ele>
        <time>2015-08-09T08:39:10Z</time>
      </trkpt>
      <trkpt lat="47.76627" lon="6.99825">
        <ele>432</ele>
        <time>2015-08-09T08:39:17Z</time>
      </trkpt>
      <trkpt lat="47.76629" lon="6.99818">
        <ele>433</ele>
        <time>2015-08-09T08:39:21Z</time>
      </trkpt>
      <trkpt lat="47.76632" lon="6.9981">
        <ele>433</ele>
        <time>2015-08-09T08:39:25Z</time>
      </trkpt>
      <trkpt lat="47.76635" lon="6.99803">
        <ele>433</ele>
        <time>2015-08-09T08:39:31Z</time>
      </trkpt>
      <trkpt lat="47.76638" lon="6.99798">
        <ele>433</ele>
        <time>2015-08-09T08:39:41Z</time>
      </trkpt>
      <trkpt lat="47.7664" lon="6.99791">
        <ele>433</ele>
        <time>2015-08-09T08:39:44Z</time>
      </trkpt>
      <trkpt lat="47.76647" lon="6.99771">
        <ele>433</ele>
        <time>2015-08-09T08:39:54Z</time>
      </trkpt>
      <trkpt lat="47.76653" lon="6.99762">
        <ele>432</ele>
        <time>2015-08-09T08:40:02Z</time>
      </trkpt>
      <trkpt lat="47.76657" lon="6.99749">
        <ele>432</ele>
        <time>2015-08-09T08:40:11Z</time>
      </trkpt>
      <trkpt lat="47.76659" lon="6.99742">
        <ele>432</ele>
        <time>2015-08-09T08:40:15Z</time>
      </trkpt>
      <trkpt lat="47.76663" lon="6.99729">
        <ele>431.1</ele>
        <time>2015-08-09T08:40:27Z</time>
      </trkpt>
      <trkpt lat="47.76664" lon="6.9971">
        <ele>430.5</ele>
        <time>2015-08-09T08:40:32Z</time>
      </trkpt>
      <trkpt lat="47.76664" lon="6.99695">
        <ele>430</ele>
        <time>2015-08-09T08:40:38Z</time>
      </trkpt>
      <trkpt lat="47.76663" lon="6.99688">
        <ele>430</ele>
        <time>2015-08-09T08:40:41Z</time>
      </trkpt>
      <trkpt lat="47.76666" lon="6.9968">
        <ele>430</ele>
        <time>2015-08-09T08:40:44Z</time>
      </trkpt>
      <trkpt lat="47.76668" lon="6.99672">
        <ele>430</ele>
        <time>2015-08-09T08:40:48Z</time>
      </trkpt>
      <trkpt lat="47.76673" lon="6.99666">
        <ele>430</ele>
        <time>2015-08-09T08:40:51Z</time>
      </trkpt>
      <trkpt lat="47.76673" lon="6.99658">
        <ele>430</ele>
        <time>2015-08-09T08:40:56Z</time>
      </trkpt>
      <trkpt lat="47.76677" lon="6.99653">
        <ele>430</ele>
        <time>2015-08-09T08:41:01Z</time>
      </trkpt>
      <trkpt lat="47.76677" lon="6.99646">
        <ele>430.5</ele>
        <time>2015-08-09T08:41:03Z</time>
      </trkpt>
      <trkpt lat="47.76676" lon="6.99639">
        <ele>430.5</ele>
        <time>2015-08-09T08:41:06Z</time>
      </trkpt>
      <trkpt lat="47.76678" lon="6.99618">
        <ele>434.7</ele>
        <time>2015-08-09T08:41:15Z</time>
      </trkpt>
      <trkpt lat="47.76673" lon="6.99599">
        <ele>437</ele>
        <time>2015-08-09T08:41:25Z</time>
      </trkpt>
      <trkpt lat="47.76673" lon="6.99586">
        <ele>438</ele>
        <time>2015-08-09T08:41:33Z</time>
      </trkpt>
      <trkpt lat="47.76673" lon="6.99577">
        <ele>438</ele>
        <time>2015-08-09T08:41:40Z</time>
      </trkpt>
      <trkpt lat="47.76673" lon="6.9957">
        <ele>438.5</ele>
        <time>2015-08-09T08:41:43Z</time>
      </trkpt>
      <trkpt lat="47.76673" lon="6.99556">
        <ele>439</ele>
        <time>2015-08-09T08:41:49Z</time>
      </trkpt>
      <trkpt lat="47.76676" lon="6.9955">
        <ele>439</ele>
        <time>2015-08-09T08:41:52Z</time>
      </trkpt>
      <trkpt lat="47.76682" lon="6.99539">
        <ele>439</ele>
        <time>2015-08-09T08:41:58Z</time>
      </trkpt>
      <trkpt lat="47.76682" lon="6.99531">
        <ele>439</ele>
        <time>2015-08-09T08:42:03Z</time>
      </trkpt>
      <trkpt lat="47.76673" lon="6.99519">
        <ele>438.5</ele>
        <time>2015-08-09T08:42:12Z</time>
      </trkpt>
      <trkpt lat="47.7667" lon="6.99511">
        <ele>438</ele>
        <time>2015-08-09T08:42:17Z</time>
      </trkpt>
      <trkpt lat="47.76665" lon="6.99499">
        <ele>438</ele>
        <time>2015-08-09T08:42:24Z</time>
      </trkpt>
      <trkpt lat="47.76657" lon="6.99489">
        <ele>438</ele>
        <time>2015-08-09T08:42:30Z</time>
      </trkpt>
      <trkpt lat="47.76653" lon="6.99486">
        <ele>438</ele>
        <time>2015-08-09T08:42:34Z</time>
      </trkpt>
      <trkpt lat="47.76653" lon="6.99479">
        <ele>438</ele>
        <time>2015-08-09T08:42:38Z</time>
      </trkpt>
      <trkpt lat="47.76653" lon="6.99472">
        <ele>438</ele>
        <time>2015-08-09T08:42:43Z</time>
      </trkpt>
      <trkpt lat="47.7665" lon="6.99465">
        <ele>437.2</ele>
        <time>2015-08-09T08:42:50Z</time>
      </trkpt>
      <trkpt lat="47.76647" lon="6.99459">
        <ele>437.8</ele>
        <time>2015-08-09T08:42:54Z</time>
      </trkpt>
      <trkpt lat="47.76643" lon="6.99448">
        <ele>438</ele>
        <time>2015-08-09T08:43:02Z</time>
      </trkpt>
      <trkpt lat="47.76641" lon="6.99434">
        <ele>438</ele>
        <time>2015-08-09T08:43:10Z</time>
      </trkpt>
      <trkpt lat="47.76633" lon="6.99415">
        <ele>439</ele>
        <time>2015-08-09T08:43:20Z</time>
      </trkpt>
      <trkpt lat="47.76628" lon="6.99404">
        <ele>439</ele>
        <time>2015-08-09T08:43:28Z</time>
      </trkpt>
      <trkpt lat="47.76624" lon="6.99399">
        <ele>439</ele>
        <time>2015-08-09T08:43:31Z</time>
      </trkpt>
      <trkpt lat="47.7662" lon="6.99393">
        <ele>439</ele>
        <time>2015-08-09T08:43:35Z</time>
      </trkpt>
      <trkpt lat="47.76619" lon="6.99381">
        <ele>439</ele>
        <time>2015-08-09T08:43:40Z</time>
      </trkpt>
      <trkpt lat="47.76617" lon="6.99375">
        <ele>439</ele>
        <time>2015-08-09T08:43:44Z</time>
      </trkpt>
      <trkpt lat="47.76614" lon="6.99369">
        <ele>440.8</ele>
        <time>2015-08-09T08:43:47Z</time>
      </trkpt>
      <trkpt lat="47.76608" lon="6.99358">
        <ele>441.9</ele>
        <time>2015-08-09T08:43:55Z</time>
      </trkpt>
      <trkpt lat="47.76601" lon="6.99347">
        <ele>445</ele>
        <time>2015-08-09T08:44:03Z</time>
      </trkpt>
      <trkpt lat="47.766" lon="6.9934">
        <ele>446</ele>
        <time>2015-08-09T08:44:07Z</time>
      </trkpt>
      <trkpt lat="47.76597" lon="6.99335">
        <ele>446</ele>
        <time>2015-08-09T08:44:12Z</time>
      </trkpt>
      <trkpt lat="47.76593" lon="6.99329">
        <ele>447</ele>
        <time>2015-08-09T08:44:16Z</time>
      </trkpt>
      <trkpt lat="47.76584" lon="6.99313">
        <ele>447.7</ele>
        <time>2015-08-09T08:44:26Z</time>
      </trkpt>
      <trkpt lat="47.7658" lon="6.99308">
        <ele>448</ele>
        <time>2015-08-09T08:44:29Z</time>
      </trkpt>
      <trkpt lat="47.76577" lon="6.99302">
        <ele>449.4</ele>
        <time>2015-08-09T08:44:32Z</time>
      </trkpt>
      <trkpt lat="47.76575" lon="6.99294">
        <ele>450</ele>
        <time>2015-08-09T08:44:37Z</time>
      </trkpt>
      <trkpt lat="47.76567" lon="6.99279">
        <ele>451</ele>
        <time>2015-08-09T08:44:46Z</time>
      </trkpt>
      <trkpt lat="47.76564" lon="6.99273">
        <ele>451</ele>
        <time>2015-08-09T08:44:50Z</time>
      </trkpt>
      <trkpt lat="47.76561" lon="6.99267">
        <ele>451.9</ele>
        <time>2015-08-09T08:44:56Z</time>
      </trkpt>
      <trkpt lat="47.76553" lon="6.99259">
        <ele>454</ele>
        <time>2015-08-09T08:45:06Z</time>
      </trkpt>
      <trkpt lat="47.76549" lon="6.99256">
        <ele>456</ele>
        <time>2015-08-09T08:45:12Z</time>
      </trkpt>
      <trkpt lat="47.76546" lon="6.99251">
        <ele>458</ele>
        <time>2015-08-09T08:45:19Z</time>
      </trkpt>
      <trkpt lat="47.7654" lon="6.99251">
        <ele>458</ele>
        <time>2015-08-09T08:45:23Z</time>
      </trkpt>
      <trkpt lat="47.76532" lon="6.99247">
        <ele>458</ele>
        <time>2015-08-09T08:45:31Z</time>
      </trkpt>
      <trkpt lat="47.76526" lon="6.99247">
        <ele>458</ele>
        <time>2015-08-09T08:45:35Z</time>
      </trkpt>
      <trkpt lat="47.76517" lon="6.99246">
        <ele>458</ele>
        <time>2015-08-09T08:45:43Z</time>
      </trkpt>
      <trkpt lat="47.76508" lon="6.99241">
        <ele>456.1</ele>
        <time>2015-08-09T08:45:55Z</time>
      </trkpt>
      <trkpt lat="47.76503" lon="6.99242">
        <ele>455</ele>
        <time>2015-08-09T08:45:58Z</time>
      </trkpt>
      <trkpt lat="47.76499" lon="6.99244">
        <ele>455</ele>
        <time>2015-08-09T08:46:00Z</time>
      </trkpt>
      <trkpt lat="47.7649" lon="6.99245">
        <ele>455</ele>
        <time>2015-08-09T08:46:05Z</time>
      </trkpt>
      <trkpt lat="47.76485" lon="6.99245">
        <ele>455</ele>
        <time>2015-08-09T08:46:08Z</time>
      </trkpt>
      <trkpt lat="47.76475" lon="6.99249">
        <ele>455</ele>
        <time>2015-08-09T08:46:15Z</time>
      </trkpt>
      <trkpt lat="47.76464" lon="6.99261">
        <ele>455</ele>
        <time>2015-08-09T08:46:26Z</time>
      </trkpt>
      <trkpt lat="47.76458" lon="6.99268">
        <ele>455.8</ele>
        <time>2015-08-09T08:46:32Z</time>
      </trkpt>
      <trkpt lat="47.76454" lon="6.99271">
        <ele>455.8</ele>
        <time>2015-08-09T08:46:34Z</time>
      </trkpt>
      <trkpt lat="47.76449" lon="6.99275">
        <ele>456.7</ele>
        <time>2015-08-09T08:46:38Z</time>
      </trkpt>
      <trkpt lat="47.76445" lon="6.99278">
        <ele>457</ele>
        <time>2015-08-09T08:46:41Z</time>
      </trkpt>
      <trkpt lat="47.7644" lon="6.9928">
        <ele>457</ele>
        <time>2015-08-09T08:46:45Z</time>
      </trkpt>
      <trkpt lat="47.76434" lon="6.99283">
        <ele>457</ele>
        <time>2015-08-09T08:46:50Z</time>
      </trkpt>
      <trkpt lat="47.76429" lon="6.99286">
        <ele>458</ele>
        <time>2015-08-09T08:46:55Z</time>
      </trkpt>
      <trkpt lat="47.76419" lon="6.99288">
        <ele>458</ele>
        <time>2015-08-09T08:47:03Z</time>
      </trkpt>
      <trkpt lat="47.7641" lon="6.99287">
        <ele>458</ele>
        <time>2015-08-09T08:47:11Z</time>
      </trkpt>
      <trkpt lat="47.76404" lon="6.99285">
        <ele>458.5</ele>
        <time>2015-08-09T08:47:18Z</time>
      </trkpt>
      <trkpt lat="47.76399" lon="6.99286">
        <ele>458.9</ele>
        <time>2015-08-09T08:47:22Z</time>
      </trkpt>
      <trkpt lat="47.76394" lon="6.99283">
        <ele>459</ele>
        <time>2015-08-09T08:47:27Z</time>
      </trkpt>
      <trkpt lat="47.76388" lon="6.99279">
        <ele>460.9</ele>
        <time>2015-08-09T08:47:34Z</time>
      </trkpt>
      <trkpt lat="47.76378" lon="6.99277">
        <ele>462</ele>
        <time>2015-08-09T08:47:40Z</time>
      </trkpt>
      <trkpt lat="47.7637" lon="6.99269">
        <ele>462</ele>
        <time>2015-08-09T08:47:46Z</time>
      </trkpt>
      <trkpt lat="47.76364" lon="6.99258">
        <ele>462</ele>
        <time>2015-08-09T08:47:54Z</time>
      </trkpt>
      <trkpt lat="47.76355" lon="6.99247">
        <ele>462</ele>
        <time>2015-08-09T08:48:02Z</time>
      </trkpt>
      <trkpt lat="47.76352" lon="6.99241">
        <ele>463.9</ele>
        <time>2015-08-09T08:48:06Z</time>
      </trkpt>
      <trkpt lat="47.76349" lon="6.99236">
        <ele>463.9</ele>
        <time>2015-08-09T08:48:10Z</time>
      </trkpt>
      <trkpt lat="47.76342" lon="6.99226">
        <ele>466.8</ele>
        <time>2015-08-09T08:48:17Z</time>
      </trkpt>
      <trkpt lat="47.76332" lon="6.99209">
        <ele>467</ele>
        <time>2015-08-09T08:48:29Z</time>
      </trkpt>
      <trkpt lat="47.76329" lon="6.99201">
        <ele>469</ele>
        <time>2015-08-09T08:48:32Z</time>
      </trkpt>
      <trkpt lat="47.76326" lon="6.99196">
        <ele>469</ele>
        <time>2015-08-09T08:48:36Z</time>
      </trkpt>
      <trkpt lat="47.76319" lon="6.99187">
        <ele>469</ele>
        <time>2015-08-09T08:48:42Z</time>
      </trkpt>
      <trkpt lat="47.76312" lon="6.99174">
        <ele>469</ele>
        <time>2015-08-09T08:48:57Z</time>
      </trkpt>
      <trkpt lat="47.76308" lon="6.9917">
        <ele>468.1</ele>
        <time>2015-08-09T08:48:59Z</time>
      </trkpt>
      <trkpt lat="47.76303" lon="6.99165">
        <ele>468.1</ele>
        <time>2015-08-09T08:49:02Z</time>
      </trkpt>
      <trkpt lat="47.76293" lon="6.99151">
        <ele>467</ele>
        <time>2015-08-09T08:49:14Z</time>
      </trkpt>
      <trkpt lat="47.7628" lon="6.99145">
        <ele>467</ele>
        <time>2015-08-09T08:49:26Z</time>
      </trkpt>
      <trkpt lat="47.76276" lon="6.99142">
        <ele>467</ele>
        <time>2015-08-09T08:49:30Z</time>
      </trkpt>
      <trkpt lat="47.76272" lon="6.99138">
        <ele>467</ele>
        <time>2015-08-09T08:49:36Z</time>
      </trkpt>
      <trkpt lat="47.76267" lon="6.99139">
        <ele>467</ele>
        <time>2015-08-09T08:49:40Z</time>
      </trkpt>
      <trkpt lat="47.76256" lon="6.9914">
        <ele>467</ele>
        <time>2015-08-09T08:49:49Z</time>
      </trkpt>
      <trkpt lat="47.7625" lon="6.99138">
        <ele>468.5</ele>
        <time>2015-08-09T08:49:53Z</time>
      </trkpt>
      <trkpt lat="47.7624" lon="6.99139">
        <ele>471.7</ele>
        <time>2015-08-09T08:50:00Z</time>
      </trkpt>
      <trkpt lat="47.7623" lon="6.99135">
        <ele>473.9</ele>
        <time>2015-08-09T08:50:06Z</time>
      </trkpt>
      <trkpt lat="47.76224" lon="6.99136">
        <ele>474</ele>
        <time>2015-08-09T08:50:10Z</time>
      </trkpt>
      <trkpt lat="47.76211" lon="6.99148">
        <ele>474</ele>
        <time>2015-08-09T08:50:25Z</time>
      </trkpt>
      <trkpt lat="47.76206" lon="6.99152">
        <ele>475</ele>
        <time>2015-08-09T08:50:33Z</time>
      </trkpt>
      <trkpt lat="47.76201" lon="6.99154">
        <ele>475</ele>
        <time>2015-08-09T08:50:36Z</time>
      </trkpt>
      <trkpt lat="47.76191" lon="6.99156">
        <ele>475</ele>
        <time>2015-08-09T08:50:40Z</time>
      </trkpt>
      <trkpt lat="47.76185" lon="6.99154">
        <ele>476</ele>
        <time>2015-08-09T08:50:46Z</time>
      </trkpt>
      <trkpt lat="47.76187" lon="6.99147">
        <ele>476</ele>
        <time>2015-08-09T08:50:50Z</time>
      </trkpt>
      <trkpt lat="47.7618" lon="6.99145">
        <ele>476</ele>
        <time>2015-08-09T08:51:01Z</time>
      </trkpt>
      <trkpt lat="47.76177" lon="6.99139">
        <ele>476</ele>
        <time>2015-08-09T08:51:06Z</time>
      </trkpt>
      <trkpt lat="47.7618" lon="6.99133">
        <ele>478.1</ele>
        <time>2015-08-09T08:53:42Z</time>
      </trkpt>
      <trkpt lat="47.76178" lon="6.9914">
        <ele>472.3</ele>
        <time>2015-08-09T08:54:16Z</time>
      </trkpt>
      <trkpt lat="47.76174" lon="6.99137">
        <ele>472</ele>
        <time>2015-08-09T08:54:26Z</time>
      </trkpt>
      <trkpt lat="47.76176" lon="6.99131">
        <ele>472</ele>
        <time>2015-08-09T08:54:47Z</time>
      </trkpt>
      <trkpt lat="47.7618" lon="6.99134">
        <ele>473</ele>
        <time>2015-08-09T08:54:58Z</time>
      </trkpt>
      <trkpt lat="47.76181" lon="6.99142">
        <ele>473</ele>
        <time>2015-08-09T08:55:02Z</time>
      </trkpt>
      <trkpt lat="47.76182" lon="6.99151">
        <ele>473</ele>
        <time>2015-08-09T08:55:04Z</time>
      </trkpt>
      <trkpt lat="47.76183" lon="6.99158">
        <ele>473</ele>
        <time>2015-08-09T08:55:07Z</time>
      </trkpt>
      <trkpt lat="47.76184" lon="6.99169">
        <ele>474</ele>
        <time>2015-08-09T08:55:11Z</time>
      </trkpt>
      <trkpt lat="47.76182" lon="6.99163">
        <ele>474</ele>
        <time>2015-08-09T08:55:20Z</time>
      </trkpt>
      <trkpt lat="47.76177" lon="6.99163">
        <ele>474</ele>
        <time>2015-08-09T08:55:26Z</time>
      </trkpt>
      <trkpt lat="47.76172" lon="6.99156">
        <ele>474</ele>
        <time>2015-08-09T08:55:36Z</time>
      </trkpt>
      <trkpt lat="47.76167" lon="6.99157">
        <ele>474</ele>
        <time>2015-08-09T08:55:41Z</time>
      </trkpt>
      <trkpt lat="47.76158" lon="6.99163">
        <ele>473.1</ele>
        <time>2015-08-09T08:55:49Z</time>
      </trkpt>
      <trkpt lat="47.76151" lon="6.99169">
        <ele>473.9</ele>
        <time>2015-08-09T08:55:56Z</time>
      </trkpt>
      <trkpt lat="47.76147" lon="6.99169">
        <ele>474</ele>
        <time>2015-08-09T08:56:04Z</time>
      </trkpt>
      <trkpt lat="47.76141" lon="6.99169">
        <ele>474</ele>
        <time>2015-08-09T08:56:11Z</time>
      </trkpt>
      <trkpt lat="47.76137" lon="6.99166">
        <ele>474</ele>
        <time>2015-08-09T08:56:17Z</time>
      </trkpt>
      <trkpt lat="47.76128" lon="6.9916">
        <ele>473</ele>
        <time>2015-08-09T08:56:25Z</time>
      </trkpt>
      <trkpt lat="47.76123" lon="6.99163">
        <ele>473</ele>
        <time>2015-08-09T08:56:31Z</time>
      </trkpt>
      <trkpt lat="47.76118" lon="6.99166">
        <ele>473</ele>
        <time>2015-08-09T08:56:37Z</time>
      </trkpt>
      <trkpt lat="47.76113" lon="6.99165">
        <ele>473</ele>
        <time>2015-08-09T08:56:42Z</time>
      </trkpt>
      <trkpt lat="47.7611" lon="6.9916">
        <ele>473.9</ele>
        <time>2015-08-09T08:56:48Z</time>
      </trkpt>
      <trkpt lat="47.76105" lon="6.99156">
        <ele>474</ele>
        <time>2015-08-09T08:56:54Z</time>
      </trkpt>
      <trkpt lat="47.76101" lon="6.99152">
        <ele>474</ele>
        <time>2015-08-09T08:56:59Z</time>
      </trkpt>
      <trkpt lat="47.76094" lon="6.99148">
        <ele>473.2</ele>
        <time>2015-08-09T08:57:06Z</time>
      </trkpt>
      <trkpt lat="47.76089" lon="6.99146">
        <ele>473.2</ele>
        <time>2015-08-09T08:57:10Z</time>
      </trkpt>
      <trkpt lat="47.76079" lon="6.99146">
        <ele>471</ele>
        <time>2015-08-09T08:57:26Z</time>
      </trkpt>
      <trkpt lat="47.7607" lon="6.99139">
        <ele>471</ele>
        <time>2015-08-09T08:57:37Z</time>
      </trkpt>
      <trkpt lat="47.76065" lon="6.9914">
        <ele>470.1</ele>
        <time>2015-08-09T08:57:42Z</time>
      </trkpt>
      <trkpt lat="47.76064" lon="6.99147">
        <ele>468.2</ele>
        <time>2015-08-09T08:57:48Z</time>
      </trkpt>
      <trkpt lat="47.76063" lon="6.99153">
        <ele>467.1</ele>
        <time>2015-08-09T08:57:55Z</time>
      </trkpt>
      <trkpt lat="47.76058" lon="6.99159">
        <ele>466.1</ele>
        <time>2015-08-09T08:58:01Z</time>
      </trkpt>
      <trkpt lat="47.76056" lon="6.99168">
        <ele>465</ele>
        <time>2015-08-09T08:58:08Z</time>
      </trkpt>
      <trkpt lat="47.76053" lon="6.99172">
        <ele>465</ele>
        <time>2015-08-09T08:58:11Z</time>
      </trkpt>
      <trkpt lat="47.76048" lon="6.99184">
        <ele>464.1</ele>
        <time>2015-08-09T08:58:18Z</time>
      </trkpt>
      <trkpt lat="47.76048" lon="6.99191">
        <ele>463.5</ele>
        <time>2015-08-09T08:58:22Z</time>
      </trkpt>
      <trkpt lat="47.76041" lon="6.99205">
        <ele>460.1</ele>
        <time>2015-08-09T08:58:33Z</time>
      </trkpt>
      <trkpt lat="47.76037" lon="6.99209">
        <ele>460</ele>
        <time>2015-08-09T08:58:40Z</time>
      </trkpt>
      <trkpt lat="47.76033" lon="6.99214">
        <ele>460</ele>
        <time>2015-08-09T08:58:45Z</time>
      </trkpt>
      <trkpt lat="47.76024" lon="6.9922">
        <ele>460</ele>
        <time>2015-08-09T08:58:55Z</time>
      </trkpt>
      <trkpt lat="47.7602" lon="6.99223">
        <ele>460</ele>
        <time>2015-08-09T08:58:58Z</time>
      </trkpt>
      <trkpt lat="47.7601" lon="6.99223">
        <ele>460</ele>
        <time>2015-08-09T08:59:06Z</time>
      </trkpt>
      <trkpt lat="47.76003" lon="6.99233">
        <ele>463.7</ele>
        <time>2015-08-09T08:59:14Z</time>
      </trkpt>
      <trkpt lat="47.75998" lon="6.99236">
        <ele>464.9</ele>
        <time>2015-08-09T08:59:19Z</time>
      </trkpt>
      <trkpt lat="47.75988" lon="6.99239">
        <ele>468.5</ele>
        <time>2015-08-09T08:59:31Z</time>
      </trkpt>
      <trkpt lat="47.75983" lon="6.99239">
        <ele>472</ele>
        <time>2015-08-09T08:59:37Z</time>
      </trkpt>
      <trkpt lat="47.75978" lon="6.99241">
        <ele>475.3</ele>
        <time>2015-08-09T08:59:42Z</time>
      </trkpt>
      <trkpt lat="47.75973" lon="6.99244">
        <ele>476.9</ele>
        <time>2015-08-09T08:59:49Z</time>
      </trkpt>
      <trkpt lat="47.75967" lon="6.99242">
        <ele>478</ele>
        <time>2015-08-09T08:59:53Z</time>
      </trkpt>
      <trkpt lat="47.75962" lon="6.99238">
        <ele>478</ele>
        <time>2015-08-09T08:59:57Z</time>
      </trkpt>
      <trkpt lat="47.75955" lon="6.99223">
        <ele>478</ele>
        <time>2015-08-09T09:00:05Z</time>
      </trkpt>
      <trkpt lat="47.7595" lon="6.99217">
        <ele>478</ele>
        <time>2015-08-09T09:00:09Z</time>
      </trkpt>
      <trkpt lat="47.75946" lon="6.99215">
        <ele>477.2</ele>
        <time>2015-08-09T09:00:12Z</time>
      </trkpt>
      <trkpt lat="47.75943" lon="6.99208">
        <ele>477.2</ele>
        <time>2015-08-09T09:00:16Z</time>
      </trkpt>
      <trkpt lat="47.7594" lon="6.99202">
        <ele>477</ele>
        <time>2015-08-09T09:00:21Z</time>
      </trkpt>
      <trkpt lat="47.7593" lon="6.99197">
        <ele>477</ele>
        <time>2015-08-09T09:00:33Z</time>
      </trkpt>
      <trkpt lat="47.75934" lon="6.99194">
        <ele>476.2</ele>
        <time>2015-08-09T09:00:42Z</time>
      </trkpt>
      <trkpt lat="47.75938" lon="6.9919">
        <ele>476.2</ele>
        <time>2015-08-09T09:00:43Z</time>
      </trkpt>
      <trkpt lat="47.75934" lon="6.99188">
        <ele>475</ele>
        <time>2015-08-09T09:01:11Z</time>
      </trkpt>
      <trkpt lat="47.7592" lon="6.99187">
        <ele>475</ele>
        <time>2015-08-09T09:01:23Z</time>
      </trkpt>
      <trkpt lat="47.75916" lon="6.99183">
        <ele>474.5</ele>
        <time>2015-08-09T09:01:30Z</time>
      </trkpt>
      <trkpt lat="47.75913" lon="6.99176">
        <ele>474</ele>
        <time>2015-08-09T09:01:34Z</time>
      </trkpt>
      <trkpt lat="47.75908" lon="6.99174">
        <ele>474</ele>
        <time>2015-08-09T09:01:39Z</time>
      </trkpt>
      <trkpt lat="47.75898" lon="6.99177">
        <ele>474</ele>
        <time>2015-08-09T09:01:44Z</time>
      </trkpt>
      <trkpt lat="47.75893" lon="6.99177">
        <ele>474</ele>
        <time>2015-08-09T09:01:48Z</time>
      </trkpt>
      <trkpt lat="47.7589" lon="6.9917">
        <ele>474</ele>
        <time>2015-08-09T09:02:00Z</time>
      </trkpt>
      <trkpt lat="47.75886" lon="6.99165">
        <ele>472.6</ele>
        <time>2015-08-09T09:02:05Z</time>
      </trkpt>
      <trkpt lat="47.75876" lon="6.99162">
        <ele>472</ele>
        <time>2015-08-09T09:02:12Z</time>
      </trkpt>
      <trkpt lat="47.75871" lon="6.99164">
        <ele>472</ele>
        <time>2015-08-09T09:02:16Z</time>
      </trkpt>
      <trkpt lat="47.75863" lon="6.9916">
        <ele>471.1</ele>
        <time>2015-08-09T09:02:21Z</time>
      </trkpt>
      <trkpt lat="47.75859" lon="6.99155">
        <ele>471.1</ele>
        <time>2015-08-09T09:02:25Z</time>
      </trkpt>
      <trkpt lat="47.75855" lon="6.9915">
        <ele>470</ele>
        <time>2015-08-09T09:02:31Z</time>
      </trkpt>
      <trkpt lat="47.75847" lon="6.99146">
        <ele>470</ele>
        <time>2015-08-09T09:02:38Z</time>
      </trkpt>
      <trkpt lat="47.75839" lon="6.99153">
        <ele>470</ele>
        <time>2015-08-09T09:02:43Z</time>
      </trkpt>
      <trkpt lat="47.7583" lon="6.99161">
        <ele>470</ele>
        <time>2015-08-09T09:02:47Z</time>
      </trkpt>
      <trkpt lat="47.75825" lon="6.99161">
        <ele>470</ele>
        <time>2015-08-09T09:02:53Z</time>
      </trkpt>
      <trkpt lat="47.75823" lon="6.99169">
        <ele>470</ele>
        <time>2015-08-09T09:02:56Z</time>
      </trkpt>
      <trkpt lat="47.75818" lon="6.99169">
        <ele>470</ele>
        <time>2015-08-09T09:02:59Z</time>
      </trkpt>
      <trkpt lat="47.75811" lon="6.99169">
        <ele>470</ele>
        <time>2015-08-09T09:03:03Z</time>
      </trkpt>
      <trkpt lat="47.75803" lon="6.99171">
        <ele>470</ele>
        <time>2015-08-09T09:03:07Z</time>
      </trkpt>
      <trkpt lat="47.75798" lon="6.99173">
        <ele>471</ele>
        <time>2015-08-09T09:03:11Z</time>
      </trkpt>
      <trkpt lat="47.75794" lon="6.99177">
        <ele>471</ele>
        <time>2015-08-09T09:03:14Z</time>
      </trkpt>
      <trkpt lat="47.75784" lon="6.9918">
        <ele>472</ele>
        <time>2015-08-09T09:03:24Z</time>
      </trkpt>
      <trkpt lat="47.75772" lon="6.99179">
        <ele>474.4</ele>
        <time>2015-08-09T09:03:34Z</time>
      </trkpt>
      <trkpt lat="47.75769" lon="6.99174">
        <ele>475</ele>
        <time>2015-08-09T09:03:38Z</time>
      </trkpt>
      <trkpt lat="47.75763" lon="6.99176">
        <ele>475</ele>
        <time>2015-08-09T09:03:42Z</time>
      </trkpt>
      <trkpt lat="47.75758" lon="6.99175">
        <ele>475.9</ele>
        <time>2015-08-09T09:03:46Z</time>
      </trkpt>
      <trkpt lat="47.75753" lon="6.99168">
        <ele>476</ele>
        <time>2015-08-09T09:03:50Z</time>
      </trkpt>
      <trkpt lat="47.75749" lon="6.99165">
        <ele>476</ele>
        <time>2015-08-09T09:03:54Z</time>
      </trkpt>
      <trkpt lat="47.75744" lon="6.99163">
        <ele>476</ele>
        <time>2015-08-09T09:03:58Z</time>
      </trkpt>
      <trkpt lat="47.7574" lon="6.99159">
        <ele>476</ele>
        <time>2015-08-09T09:04:02Z</time>
      </trkpt>
      <trkpt lat="47.75736" lon="6.99154">
        <ele>476</ele>
        <time>2015-08-09T09:04:06Z</time>
      </trkpt>
      <trkpt lat="47.75724" lon="6.99146">
        <ele>476</ele>
        <time>2015-08-09T09:04:18Z</time>
      </trkpt>
      <trkpt lat="47.7572" lon="6.99141">
        <ele>476</ele>
        <time>2015-08-09T09:04:23Z</time>
      </trkpt>
      <trkpt lat="47.75712" lon="6.99135">
        <ele>475</ele>
        <time>2015-08-09T09:04:33Z</time>
      </trkpt>
      <trkpt lat="47.75707" lon="6.99131">
        <ele>475.7</ele>
        <time>2015-08-09T09:04:36Z</time>
      </trkpt>
      <trkpt lat="47.75699" lon="6.99123">
        <ele>476</ele>
        <time>2015-08-09T09:04:43Z</time>
      </trkpt>
      <trkpt lat="47.75693" lon="6.99111">
        <ele>476</ele>
        <time>2015-08-09T09:04:53Z</time>
      </trkpt>
      <trkpt lat="47.75693" lon="6.99104">
        <ele>476</ele>
        <time>2015-08-09T09:04:57Z</time>
      </trkpt>
      <trkpt lat="47.75683" lon="6.99091">
        <ele>476.9</ele>
        <time>2015-08-09T09:05:07Z</time>
      </trkpt>
      <trkpt lat="47.75674" lon="6.99091">
        <ele>477</ele>
        <time>2015-08-09T09:05:12Z</time>
      </trkpt>
      <trkpt lat="47.75673" lon="6.99083">
        <ele>478</ele>
        <time>2015-08-09T09:05:18Z</time>
      </trkpt>
      <trkpt lat="47.75668" lon="6.99081">
        <ele>478.9</ele>
        <time>2015-08-09T09:05:35Z</time>
      </trkpt>
      <trkpt lat="47.75664" lon="6.99077">
        <ele>478.9</ele>
        <time>2015-08-09T09:05:38Z</time>
      </trkpt>
      <trkpt lat="47.75666" lon="6.99063">
        <ele>479</ele>
        <time>2015-08-09T09:05:46Z</time>
      </trkpt>
      <trkpt lat="47.75662" lon="6.99058">
        <ele>478.5</ele>
        <time>2015-08-09T09:05:56Z</time>
      </trkpt>
      <trkpt lat="47.75657" lon="6.99057">
        <ele>478.1</ele>
        <time>2015-08-09T09:06:00Z</time>
      </trkpt>
      <trkpt lat="47.75653" lon="6.99054">
        <ele>478.1</ele>
        <time>2015-08-09T09:06:01Z</time>
      </trkpt>
      <trkpt lat="47.75645" lon="6.99045">
        <ele>475.3</ele>
        <time>2015-08-09T09:06:09Z</time>
      </trkpt>
      <trkpt lat="47.75644" lon="6.99038">
        <ele>473.3</ele>
        <time>2015-08-09T09:06:16Z</time>
      </trkpt>
      <trkpt lat="47.7564" lon="6.99034">
        <ele>473.3</ele>
        <time>2015-08-09T09:06:19Z</time>
      </trkpt>
      <trkpt lat="47.75636" lon="6.99031">
        <ele>472.1</ele>
        <time>2015-08-09T09:06:22Z</time>
      </trkpt>
      <trkpt lat="47.75637" lon="6.99023">
        <ele>472.1</ele>
        <time>2015-08-09T09:06:25Z</time>
      </trkpt>
      <trkpt lat="47.75638" lon="6.99017">
        <ele>471</ele>
        <time>2015-08-09T09:06:29Z</time>
      </trkpt>
      <trkpt lat="47.75636" lon="6.99009">
        <ele>471</ele>
        <time>2015-08-09T09:06:32Z</time>
      </trkpt>
      <trkpt lat="47.75624" lon="6.98998">
        <ele>471</ele>
        <time>2015-08-09T09:06:37Z</time>
      </trkpt>
      <trkpt lat="47.75626" lon="6.98992">
        <ele>471</ele>
        <time>2015-08-09T09:06:45Z</time>
      </trkpt>
      <trkpt lat="47.75631" lon="6.98991">
        <ele>471</ele>
        <time>2015-08-09T09:06:48Z</time>
      </trkpt>
      <trkpt lat="47.7563" lon="6.98983">
        <ele>473</ele>
        <time>2015-08-09T09:07:06Z</time>
      </trkpt>
      <trkpt lat="47.75625" lon="6.98971">
        <ele>479.7</ele>
        <time>2015-08-09T09:07:17Z</time>
      </trkpt>
      <trkpt lat="47.75623" lon="6.98978">
        <ele>483</ele>
        <time>2015-08-09T09:07:30Z</time>
      </trkpt>
      <trkpt lat="47.75622" lon="6.98971">
        <ele>483.9</ele>
        <time>2015-08-09T09:07:40Z</time>
      </trkpt>
      <trkpt lat="47.75622" lon="6.98958">
        <ele>485</ele>
        <time>2015-08-09T09:07:48Z</time>
      </trkpt>
      <trkpt lat="47.75623" lon="6.98951">
        <ele>485</ele>
        <time>2015-08-09T09:07:51Z</time>
      </trkpt>
      <trkpt lat="47.75627" lon="6.98931">
        <ele>485</ele>
        <time>2015-08-09T09:08:01Z</time>
      </trkpt>
      <trkpt lat="47.75633" lon="6.98918">
        <ele>485</ele>
        <time>2015-08-09T09:08:10Z</time>
      </trkpt>
      <trkpt lat="47.75628" lon="6.98918">
        <ele>484.2</ele>
        <time>2015-08-09T09:08:21Z</time>
      </trkpt>
      <trkpt lat="47.75624" lon="6.98914">
        <ele>484.8</ele>
        <time>2015-08-09T09:08:25Z</time>
      </trkpt>
      <trkpt lat="47.75621" lon="6.98907">
        <ele>485</ele>
        <time>2015-08-09T09:08:31Z</time>
      </trkpt>
      <trkpt lat="47.75621" lon="6.98899">
        <ele>485</ele>
        <time>2015-08-09T09:08:35Z</time>
      </trkpt>
      <trkpt lat="47.75624" lon="6.98892">
        <ele>485</ele>
        <time>2015-08-09T09:08:39Z</time>
      </trkpt>
      <trkpt lat="47.75628" lon="6.9888">
        <ele>485</ele>
        <time>2015-08-09T09:08:45Z</time>
      </trkpt>
      <trkpt lat="47.75633" lon="6.98867">
        <ele>485</ele>
        <time>2015-08-09T09:08:51Z</time>
      </trkpt>
      <trkpt lat="47.75631" lon="6.98851">
        <ele>490</ele>
        <time>2015-08-09T09:09:13Z</time>
      </trkpt>
      <trkpt lat="47.7563" lon="6.98835">
        <ele>492</ele>
        <time>2015-08-09T09:09:19Z</time>
      </trkpt>
      <trkpt lat="47.75629" lon="6.98821">
        <ele>493</ele>
        <time>2015-08-09T09:09:25Z</time>
      </trkpt>
      <trkpt lat="47.75631" lon="6.98813">
        <ele>493</ele>
        <time>2015-08-09T09:09:29Z</time>
      </trkpt>
      <trkpt lat="47.75634" lon="6.98808">
        <ele>493</ele>
        <time>2015-08-09T09:09:33Z</time>
      </trkpt>
      <trkpt lat="47.75634" lon="6.98801">
        <ele>494.5</ele>
        <time>2015-08-09T09:09:46Z</time>
      </trkpt>
      <trkpt lat="47.7563" lon="6.98797">
        <ele>495.5</ele>
        <time>2015-08-09T09:09:50Z</time>
      </trkpt>
      <trkpt lat="47.75629" lon="6.98789">
        <ele>495.9</ele>
        <time>2015-08-09T09:09:54Z</time>
      </trkpt>
      <trkpt lat="47.75632" lon="6.98783">
        <ele>496</ele>
        <time>2015-08-09T09:10:01Z</time>
      </trkpt>
      <trkpt lat="47.75637" lon="6.98785">
        <ele>496</ele>
        <time>2015-08-09T09:10:05Z</time>
      </trkpt>
      <trkpt lat="47.75641" lon="6.98788">
        <ele>496</ele>
        <time>2015-08-09T09:10:08Z</time>
      </trkpt>
      <trkpt lat="47.75655" lon="6.98802">
        <ele>496</ele>
        <time>2015-08-09T09:10:14Z</time>
      </trkpt>
      <trkpt lat="47.75659" lon="6.98806">
        <ele>496</ele>
        <time>2015-08-09T09:10:17Z</time>
      </trkpt>
      <trkpt lat="47.7567" lon="6.98801">
        <ele>495.5</ele>
        <time>2015-08-09T09:10:27Z</time>
      </trkpt>
      <trkpt lat="47.75676" lon="6.98805">
        <ele>492</ele>
        <time>2015-08-09T09:10:42Z</time>
      </trkpt>
      <trkpt lat="47.75671" lon="6.98807">
        <ele>492</ele>
        <time>2015-08-09T09:10:45Z</time>
      </trkpt>
      <trkpt lat="47.75665" lon="6.98809">
        <ele>492</ele>
        <time>2015-08-09T09:10:48Z</time>
      </trkpt>
      <trkpt lat="47.75656" lon="6.98806">
        <ele>492</ele>
        <time>2015-08-09T09:10:54Z</time>
      </trkpt>
      <trkpt lat="47.75655" lon="6.98791">
        <ele>492</ele>
        <time>2015-08-09T09:11:04Z</time>
      </trkpt>
      <trkpt lat="47.75654" lon="6.98784">
        <ele>492</ele>
        <time>2015-08-09T09:11:09Z</time>
      </trkpt>
      <trkpt lat="47.75657" lon="6.98776">
        <ele>493.7</ele>
        <time>2015-08-09T09:11:15Z</time>
      </trkpt>
      <trkpt lat="47.7566" lon="6.9877">
        <ele>495.9</ele>
        <time>2015-08-09T09:11:22Z</time>
      </trkpt>
      <trkpt lat="47.7566" lon="6.98763">
        <ele>499.3</ele>
        <time>2015-08-09T09:11:25Z</time>
      </trkpt>
      <trkpt lat="47.75658" lon="6.98757">
        <ele>500.8</ele>
        <time>2015-08-09T09:11:29Z</time>
      </trkpt>
      <trkpt lat="47.75654" lon="6.98741">
        <ele>502</ele>
        <time>2015-08-09T09:11:41Z</time>
      </trkpt>
      <trkpt lat="47.75654" lon="6.98728">
        <ele>502</ele>
        <time>2015-08-09T09:11:48Z</time>
      </trkpt>
      <trkpt lat="47.75657" lon="6.98721">
        <ele>502</ele>
        <time>2015-08-09T09:11:51Z</time>
      </trkpt>
      <trkpt lat="47.75662" lon="6.9872">
        <ele>502</ele>
        <time>2015-08-09T09:11:54Z</time>
      </trkpt>
      <trkpt lat="47.75657" lon="6.98716">
        <ele>502</ele>
        <time>2015-08-09T09:12:03Z</time>
      </trkpt>
      <trkpt lat="47.75656" lon="6.98709">
        <ele>502</ele>
        <time>2015-08-09T09:12:08Z</time>
      </trkpt>
      <trkpt lat="47.75653" lon="6.98702">
        <ele>502</ele>
        <time>2015-08-09T09:12:13Z</time>
      </trkpt>
      <trkpt lat="47.75653" lon="6.98694">
        <ele>502</ele>
        <time>2015-08-09T09:12:17Z</time>
      </trkpt>
      <trkpt lat="47.75654" lon="6.98687">
        <ele>502.9</ele>
        <time>2015-08-09T09:12:21Z</time>
      </trkpt>
      <trkpt lat="47.75653" lon="6.9868">
        <ele>503</ele>
        <time>2015-08-09T09:12:26Z</time>
      </trkpt>
      <trkpt lat="47.75654" lon="6.98673">
        <ele>505.9</ele>
        <time>2015-08-09T09:12:31Z</time>
      </trkpt>
      <trkpt lat="47.75656" lon="6.98665">
        <ele>510.7</ele>
        <time>2015-08-09T09:12:41Z</time>
      </trkpt>
      <trkpt lat="47.75658" lon="6.98658">
        <ele>512.4</ele>
        <time>2015-08-09T09:12:45Z</time>
      </trkpt>
      <trkpt lat="47.75658" lon="6.9865">
        <ele>513</ele>
        <time>2015-08-09T09:12:50Z</time>
      </trkpt>
      <trkpt lat="47.7566" lon="6.98642">
        <ele>513</ele>
        <time>2015-08-09T09:12:54Z</time>
      </trkpt>
      <trkpt lat="47.75659" lon="6.98635">
        <ele>514.7</ele>
        <time>2015-08-09T09:12:58Z</time>
      </trkpt>
      <trkpt lat="47.75658" lon="6.98626">
        <ele>516.9</ele>
        <time>2015-08-09T09:13:03Z</time>
      </trkpt>
      <trkpt lat="47.7566" lon="6.98613">
        <ele>518.9</ele>
        <time>2015-08-09T09:13:14Z</time>
      </trkpt>
      <trkpt lat="47.75668" lon="6.9861">
        <ele>519</ele>
        <time>2015-08-09T09:13:27Z</time>
      </trkpt>
      <trkpt lat="47.75667" lon="6.98602">
        <ele>519</ele>
        <time>2015-08-09T09:13:31Z</time>
      </trkpt>
      <trkpt lat="47.75665" lon="6.98586">
        <ele>519.5</ele>
        <time>2015-08-09T09:13:38Z</time>
      </trkpt>
      <trkpt lat="47.75665" lon="6.98578">
        <ele>520</ele>
        <time>2015-08-09T09:13:43Z</time>
      </trkpt>
      <trkpt lat="47.75663" lon="6.98572">
        <ele>520</ele>
        <time>2015-08-09T09:13:48Z</time>
      </trkpt>
      <trkpt lat="47.75662" lon="6.98565">
        <ele>520</ele>
        <time>2015-08-09T09:13:54Z</time>
      </trkpt>
      <trkpt lat="47.75661" lon="6.98558">
        <ele>520</ele>
        <time>2015-08-09T09:13:59Z</time>
      </trkpt>
      <trkpt lat="47.7566" lon="6.98552">
        <ele>520</ele>
        <time>2015-08-09T09:14:04Z</time>
      </trkpt>
      <trkpt lat="47.75659" lon="6.98545">
        <ele>521</ele>
        <time>2015-08-09T09:14:09Z</time>
      </trkpt>
      <trkpt lat="47.75657" lon="6.98538">
        <ele>522.4</ele>
        <time>2015-08-09T09:14:14Z</time>
      </trkpt>
      <trkpt lat="47.75651" lon="6.98539">
        <ele>523.5</ele>
        <time>2015-08-09T09:14:19Z</time>
      </trkpt>
      <trkpt lat="47.75649" lon="6.98526">
        <ele>527.7</ele>
        <time>2015-08-09T09:14:31Z</time>
      </trkpt>
      <trkpt lat="47.75653" lon="6.98512">
        <ele>528</ele>
        <time>2015-08-09T09:14:40Z</time>
      </trkpt>
      <trkpt lat="47.7565" lon="6.98506">
        <ele>524.1</ele>
        <time>2015-08-09T09:15:24Z</time>
      </trkpt>
      <trkpt lat="47.7565" lon="6.98499">
        <ele>524.1</ele>
        <time>2015-08-09T09:15:28Z</time>
      </trkpt>
      <trkpt lat="47.75652" lon="6.98492">
        <ele>524</ele>
        <time>2015-08-09T09:15:33Z</time>
      </trkpt>
      <trkpt lat="47.75652" lon="6.98484">
        <ele>524</ele>
        <time>2015-08-09T09:15:38Z</time>
      </trkpt>
      <trkpt lat="47.75651" lon="6.98469">
        <ele>524</ele>
        <time>2015-08-09T09:15:44Z</time>
      </trkpt>
      <trkpt lat="47.75649" lon="6.98462">
        <ele>524</ele>
        <time>2015-08-09T09:15:47Z</time>
      </trkpt>
      <trkpt lat="47.75646" lon="6.98456">
        <ele>524</ele>
        <time>2015-08-09T09:15:56Z</time>
      </trkpt>
      <trkpt lat="47.75641" lon="6.98452">
        <ele>524</ele>
        <time>2015-08-09T09:16:00Z</time>
      </trkpt>
      <trkpt lat="47.75638" lon="6.98448">
        <ele>526.9</ele>
        <time>2015-08-09T09:16:14Z</time>
      </trkpt>
      <trkpt lat="47.75628" lon="6.98447">
        <ele>528</ele>
        <time>2015-08-09T09:16:29Z</time>
      </trkpt>
      <trkpt lat="47.75623" lon="6.98446">
        <ele>528</ele>
        <time>2015-08-09T09:16:37Z</time>
      </trkpt>
      <trkpt lat="47.75621" lon="6.98431">
        <ele>528</ele>
        <time>2015-08-09T09:16:51Z</time>
      </trkpt>
      <trkpt lat="47.75622" lon="6.98424">
        <ele>528</ele>
        <time>2015-08-09T09:16:55Z</time>
      </trkpt>
      <trkpt lat="47.75617" lon="6.98423">
        <ele>528</ele>
        <time>2015-08-09T09:17:03Z</time>
      </trkpt>
      <trkpt lat="47.75612" lon="6.98421">
        <ele>528</ele>
        <time>2015-08-09T09:17:07Z</time>
      </trkpt>
      <trkpt lat="47.75608" lon="6.98417">
        <ele>528</ele>
        <time>2015-08-09T09:17:16Z</time>
      </trkpt>
      <trkpt lat="47.75607" lon="6.98409">
        <ele>528</ele>
        <time>2015-08-09T09:17:21Z</time>
      </trkpt>
      <trkpt lat="47.75614" lon="6.984">
        <ele>528</ele>
        <time>2015-08-09T09:17:26Z</time>
      </trkpt>
      <trkpt lat="47.7561" lon="6.98393">
        <ele>521</ele>
        <time>2015-08-09T09:17:57Z</time>
      </trkpt>
      <trkpt lat="47.7561" lon="6.98385">
        <ele>521</ele>
        <time>2015-08-09T09:18:16Z</time>
      </trkpt>
      <trkpt lat="47.75606" lon="6.98381">
        <ele>521</ele>
        <time>2015-08-09T09:18:22Z</time>
      </trkpt>
      <trkpt lat="47.75601" lon="6.98367">
        <ele>522.7</ele>
        <time>2015-08-09T09:18:33Z</time>
      </trkpt>
      <trkpt lat="47.75602" lon="6.98359">
        <ele>523</ele>
        <time>2015-08-09T09:18:39Z</time>
      </trkpt>
      <trkpt lat="47.75597" lon="6.98355">
        <ele>524</ele>
        <time>2015-08-09T09:18:45Z</time>
      </trkpt>
      <trkpt lat="47.75592" lon="6.98353">
        <ele>525.5</ele>
        <time>2015-08-09T09:18:50Z</time>
      </trkpt>
      <trkpt lat="47.75588" lon="6.98352">
        <ele>526.7</ele>
        <time>2015-08-09T09:18:54Z</time>
      </trkpt>
      <trkpt lat="47.75583" lon="6.98352">
        <ele>527.8</ele>
        <time>2015-08-09T09:18:58Z</time>
      </trkpt>
      <trkpt lat="47.75575" lon="6.98344">
        <ele>529</ele>
        <time>2015-08-09T09:19:05Z</time>
      </trkpt>
      <trkpt lat="47.75574" lon="6.98337">
        <ele>530.2</ele>
        <time>2015-08-09T09:19:10Z</time>
      </trkpt>
      <trkpt lat="47.75577" lon="6.98323">
        <ele>537.2</ele>
        <time>2015-08-09T09:19:25Z</time>
      </trkpt>
      <trkpt lat="47.7557" lon="6.98311">
        <ele>539</ele>
        <time>2015-08-09T09:19:40Z</time>
      </trkpt>
      <trkpt lat="47.75566" lon="6.98306">
        <ele>539</ele>
        <time>2015-08-09T09:19:45Z</time>
      </trkpt>
      <trkpt lat="47.75561" lon="6.98294">
        <ele>539</ele>
        <time>2015-08-09T09:19:51Z</time>
      </trkpt>
      <trkpt lat="47.75561" lon="6.98285">
        <ele>539</ele>
        <time>2015-08-09T09:19:55Z</time>
      </trkpt>
      <trkpt lat="47.75563" lon="6.98278">
        <ele>539</ele>
        <time>2015-08-09T09:19:58Z</time>
      </trkpt>
      <trkpt lat="47.75567" lon="6.98266">
        <ele>538</ele>
        <time>2015-08-09T09:20:09Z</time>
      </trkpt>
      <trkpt lat="47.7557" lon="6.9826">
        <ele>538</ele>
        <time>2015-08-09T09:20:15Z</time>
      </trkpt>
      <trkpt lat="47.75578" lon="6.98252">
        <ele>538</ele>
        <time>2015-08-09T09:20:26Z</time>
      </trkpt>
      <trkpt lat="47.75579" lon="6.98258">
        <ele>539.9</ele>
        <time>2015-08-09T09:20:55Z</time>
      </trkpt>
      <trkpt lat="47.75574" lon="6.98256">
        <ele>544</ele>
        <time>2015-08-09T09:21:31Z</time>
      </trkpt>
      <trkpt lat="47.7557" lon="6.98262">
        <ele>544</ele>
        <time>2015-08-09T09:21:48Z</time>
      </trkpt>
      <trkpt lat="47.75564" lon="6.98262">
        <ele>548.7</ele>
        <time>2015-08-09T09:22:11Z</time>
      </trkpt>
      <trkpt lat="47.75566" lon="6.98255">
        <ele>560</ele>
        <time>2015-08-09T09:22:59Z</time>
      </trkpt>
      <trkpt lat="47.7557" lon="6.9825">
        <ele>560</ele>
        <time>2015-08-09T09:23:10Z</time>
      </trkpt>
      <trkpt lat="47.75569" lon="6.98257">
        <ele>557</ele>
        <time>2015-08-09T09:23:50Z</time>
      </trkpt>
      <trkpt lat="47.75573" lon="6.9826">
        <ele>549</ele>
        <time>2015-08-09T09:24:47Z</time>
      </trkpt>
      <trkpt lat="47.75566" lon="6.9825">
        <ele>549</ele>
        <time>2015-08-09T09:25:23Z</time>
      </trkpt>
      <trkpt lat="47.75563" lon="6.98245">
        <ele>549</ele>
        <time>2015-08-09T09:25:26Z</time>
      </trkpt>
      <trkpt lat="47.75558" lon="6.98242">
        <ele>549</ele>
        <time>2015-08-09T09:25:29Z</time>
      </trkpt>
      <trkpt lat="47.75554" lon="6.98238">
        <ele>549</ele>
        <time>2015-08-09T09:25:34Z</time>
      </trkpt>
      <trkpt lat="47.75552" lon="6.98231">
        <ele>549</ele>
        <time>2015-08-09T09:25:41Z</time>
      </trkpt>
      <trkpt lat="47.75548" lon="6.98228">
        <ele>549</ele>
        <time>2015-08-09T09:25:45Z</time>
      </trkpt>
      <trkpt lat="47.75546" lon="6.98221">
        <ele>549</ele>
        <time>2015-08-09T09:25:50Z</time>
      </trkpt>
      <trkpt lat="47.75545" lon="6.98214">
        <ele>549</ele>
        <time>2015-08-09T09:25:55Z</time>
      </trkpt>
      <trkpt lat="47.75537" lon="6.98208">
        <ele>549</ele>
        <time>2015-08-09T09:26:00Z</time>
      </trkpt>
      <trkpt lat="47.75532" lon="6.98204">
        <ele>549</ele>
        <time>2015-08-09T09:26:03Z</time>
      </trkpt>
      <trkpt lat="47.75526" lon="6.98194">
        <ele>549</ele>
        <time>2015-08-09T09:26:09Z</time>
      </trkpt>
      <trkpt lat="47.75523" lon="6.98187">
        <ele>549.9</ele>
        <time>2015-08-09T09:26:13Z</time>
      </trkpt>
      <trkpt lat="47.7552" lon="6.9818">
        <ele>549.9</ele>
        <time>2015-08-09T09:26:16Z</time>
      </trkpt>
      <trkpt lat="47.75511" lon="6.98166">
        <ele>550</ele>
        <time>2015-08-09T09:26:25Z</time>
      </trkpt>
      <trkpt lat="47.75507" lon="6.98162">
        <ele>550.9</ele>
        <time>2015-08-09T09:26:27Z</time>
      </trkpt>
      <trkpt lat="47.75504" lon="6.98158">
        <ele>550.9</ele>
        <time>2015-08-09T09:26:30Z</time>
      </trkpt>
      <trkpt lat="47.75503" lon="6.98151">
        <ele>551.9</ele>
        <time>2015-08-09T09:26:36Z</time>
      </trkpt>
      <trkpt lat="47.75502" lon="6.98137">
        <ele>552</ele>
        <time>2015-08-09T09:26:43Z</time>
      </trkpt>
      <trkpt lat="47.75499" lon="6.98132">
        <ele>552</ele>
        <time>2015-08-09T09:26:46Z</time>
      </trkpt>
      <trkpt lat="47.75498" lon="6.98125">
        <ele>552</ele>
        <time>2015-08-09T09:26:49Z</time>
      </trkpt>
      <trkpt lat="47.75498" lon="6.98118">
        <ele>552</ele>
        <time>2015-08-09T09:26:53Z</time>
      </trkpt>
      <trkpt lat="47.75495" lon="6.98111">
        <ele>552.9</ele>
        <time>2015-08-09T09:26:58Z</time>
      </trkpt>
      <trkpt lat="47.7549" lon="6.98111">
        <ele>553</ele>
        <time>2015-08-09T09:27:01Z</time>
      </trkpt>
      <trkpt lat="47.75486" lon="6.98115">
        <ele>553</ele>
        <time>2015-08-09T09:27:04Z</time>
      </trkpt>
      <trkpt lat="47.7548" lon="6.98126">
        <ele>554</ele>
        <time>2015-08-09T09:27:12Z</time>
      </trkpt>
      <trkpt lat="47.75479" lon="6.9814">
        <ele>554</ele>
        <time>2015-08-09T09:27:22Z</time>
      </trkpt>
      <trkpt lat="47.75479" lon="6.98147">
        <ele>554</ele>
        <time>2015-08-09T09:27:27Z</time>
      </trkpt>
      <trkpt lat="47.75476" lon="6.98167">
        <ele>551.3</ele>
        <time>2015-08-09T09:27:44Z</time>
      </trkpt>
      <trkpt lat="47.75471" lon="6.98179">
        <ele>546.2</ele>
        <time>2015-08-09T09:27:52Z</time>
      </trkpt>
      <trkpt lat="47.75468" lon="6.98192">
        <ele>545</ele>
        <time>2015-08-09T09:28:01Z</time>
      </trkpt>
      <trkpt lat="47.75462" lon="6.98195">
        <ele>545</ele>
        <time>2015-08-09T09:28:05Z</time>
      </trkpt>
      <trkpt lat="47.75453" lon="6.982">
        <ele>545</ele>
        <time>2015-08-09T09:28:10Z</time>
      </trkpt>
      <trkpt lat="47.75445" lon="6.98206">
        <ele>545</ele>
        <time>2015-08-09T09:28:18Z</time>
      </trkpt>
      <trkpt lat="47.75439" lon="6.98208">
        <ele>544.1</ele>
        <time>2015-08-09T09:28:24Z</time>
      </trkpt>
      <trkpt lat="47.75435" lon="6.98209">
        <ele>544</ele>
        <time>2015-08-09T09:28:27Z</time>
      </trkpt>
      <trkpt lat="47.7543" lon="6.98212">
        <ele>544</ele>
        <time>2015-08-09T09:28:30Z</time>
      </trkpt>
      <trkpt lat="47.75421" lon="6.9822">
        <ele>544</ele>
        <time>2015-08-09T09:28:37Z</time>
      </trkpt>
      <trkpt lat="47.75412" lon="6.98224">
        <ele>544</ele>
        <time>2015-08-09T09:28:44Z</time>
      </trkpt>
      <trkpt lat="47.75407" lon="6.98224">
        <ele>545</ele>
        <time>2015-08-09T09:28:52Z</time>
      </trkpt>
      <trkpt lat="47.75402" lon="6.98227">
        <ele>546.5</ele>
        <time>2015-08-09T09:28:58Z</time>
      </trkpt>
      <trkpt lat="47.75399" lon="6.98232">
        <ele>546.5</ele>
        <time>2015-08-09T09:29:02Z</time>
      </trkpt>
      <trkpt lat="47.7539" lon="6.98239">
        <ele>548.5</ele>
        <time>2015-08-09T09:29:08Z</time>
      </trkpt>
      <trkpt lat="47.75389" lon="6.98245">
        <ele>549.7</ele>
        <time>2015-08-09T09:29:12Z</time>
      </trkpt>
      <trkpt lat="47.75394" lon="6.98265">
        <ele>552</ele>
        <time>2015-08-09T09:29:26Z</time>
      </trkpt>
      <trkpt lat="47.75395" lon="6.98275">
        <ele>553</ele>
        <time>2015-08-09T09:29:34Z</time>
      </trkpt>
      <trkpt lat="47.75396" lon="6.98283">
        <ele>554.2</ele>
        <time>2015-08-09T09:29:39Z</time>
      </trkpt>
      <trkpt lat="47.75398" lon="6.9829">
        <ele>554.2</ele>
        <time>2015-08-09T09:29:42Z</time>
      </trkpt>
      <trkpt lat="47.75398" lon="6.98297">
        <ele>555.9</ele>
        <time>2015-08-09T09:29:46Z</time>
      </trkpt>
      <trkpt lat="47.75396" lon="6.98305">
        <ele>556</ele>
        <time>2015-08-09T09:29:51Z</time>
      </trkpt>
      <trkpt lat="47.75396" lon="6.98318">
        <ele>556</ele>
        <time>2015-08-09T09:30:00Z</time>
      </trkpt>
      <trkpt lat="47.75394" lon="6.98326">
        <ele>556</ele>
        <time>2015-08-09T09:30:04Z</time>
      </trkpt>
      <trkpt lat="47.75394" lon="6.98341">
        <ele>556.5</ele>
        <time>2015-08-09T09:30:09Z</time>
      </trkpt>
      <trkpt lat="47.75395" lon="6.98349">
        <ele>557.5</ele>
        <time>2015-08-09T09:30:12Z</time>
      </trkpt>
      <trkpt lat="47.75399" lon="6.98358">
        <ele>558</ele>
        <time>2015-08-09T09:30:19Z</time>
      </trkpt>
      <trkpt lat="47.75407" lon="6.98361">
        <ele>556.2</ele>
        <time>2015-08-09T09:30:24Z</time>
      </trkpt>
      <trkpt lat="47.75402" lon="6.98362">
        <ele>556</ele>
        <time>2015-08-09T09:30:31Z</time>
      </trkpt>
      <trkpt lat="47.75401" lon="6.98369">
        <ele>556</ele>
        <time>2015-08-09T09:30:35Z</time>
      </trkpt>
      <trkpt lat="47.75402" lon="6.98376">
        <ele>555.1</ele>
        <time>2015-08-09T09:30:38Z</time>
      </trkpt>
      <trkpt lat="47.75407" lon="6.98383">
        <ele>555.1</ele>
        <time>2015-08-09T09:30:41Z</time>
      </trkpt>
      <trkpt lat="47.75407" lon="6.98391">
        <ele>554.3</ele>
        <time>2015-08-09T09:30:46Z</time>
      </trkpt>
      <trkpt lat="47.75409" lon="6.98398">
        <ele>553.5</ele>
        <time>2015-08-09T09:30:50Z</time>
      </trkpt>
      <trkpt lat="47.7541" lon="6.98413">
        <ele>553</ele>
        <time>2015-08-09T09:30:57Z</time>
      </trkpt>
      <trkpt lat="47.7541" lon="6.9842">
        <ele>553</ele>
        <time>2015-08-09T09:31:01Z</time>
      </trkpt>
      <trkpt lat="47.75406" lon="6.98424">
        <ele>552.1</ele>
        <time>2015-08-09T09:31:06Z</time>
      </trkpt>
      <trkpt lat="47.75407" lon="6.98434">
        <ele>552</ele>
        <time>2015-08-09T09:31:10Z</time>
      </trkpt>
      <trkpt lat="47.75409" lon="6.98441">
        <ele>552</ele>
        <time>2015-08-09T09:31:16Z</time>
      </trkpt>
      <trkpt lat="47.75416" lon="6.98454">
        <ele>552</ele>
        <time>2015-08-09T09:31:26Z</time>
      </trkpt>
      <trkpt lat="47.75422" lon="6.98465">
        <ele>552</ele>
        <time>2015-08-09T09:31:33Z</time>
      </trkpt>
      <trkpt lat="47.75432" lon="6.98474">
        <ele>552</ele>
        <time>2015-08-09T09:31:38Z</time>
      </trkpt>
      <trkpt lat="47.75437" lon="6.98481">
        <ele>552</ele>
        <time>2015-08-09T09:31:43Z</time>
      </trkpt>
      <trkpt lat="47.75441" lon="6.98488">
        <ele>552</ele>
        <time>2015-08-09T09:31:50Z</time>
      </trkpt>
      <trkpt lat="47.75447" lon="6.98498">
        <ele>549.6</ele>
        <time>2015-08-09T09:32:01Z</time>
      </trkpt>
      <trkpt lat="47.75454" lon="6.98505">
        <ele>549.1</ele>
        <time>2015-08-09T09:32:06Z</time>
      </trkpt>
      <trkpt lat="47.75461" lon="6.98515">
        <ele>548.1</ele>
        <time>2015-08-09T09:32:15Z</time>
      </trkpt>
      <trkpt lat="47.75467" lon="6.98524">
        <ele>548</ele>
        <time>2015-08-09T09:32:22Z</time>
      </trkpt>
      <trkpt lat="47.75467" lon="6.98532">
        <ele>547.3</ele>
        <time>2015-08-09T09:32:26Z</time>
      </trkpt>
      <trkpt lat="47.75468" lon="6.9854">
        <ele>547</ele>
        <time>2015-08-09T09:32:31Z</time>
      </trkpt>
      <trkpt lat="47.75469" lon="6.98548">
        <ele>547</ele>
        <time>2015-08-09T09:32:35Z</time>
      </trkpt>
      <trkpt lat="47.75469" lon="6.98558">
        <ele>546</ele>
        <time>2015-08-09T09:32:43Z</time>
      </trkpt>
      <trkpt lat="47.75471" lon="6.98564">
        <ele>546</ele>
        <time>2015-08-09T09:32:47Z</time>
      </trkpt>
      <trkpt lat="47.75475" lon="6.98578">
        <ele>545</ele>
        <time>2015-08-09T09:32:54Z</time>
      </trkpt>
      <trkpt lat="47.75476" lon="6.98591">
        <ele>544</ele>
        <time>2015-08-09T09:33:00Z</time>
      </trkpt>
      <trkpt lat="47.75479" lon="6.98599">
        <ele>544</ele>
        <time>2015-08-09T09:33:07Z</time>
      </trkpt>
      <trkpt lat="47.75483" lon="6.98607">
        <ele>544</ele>
        <time>2015-08-09T09:33:10Z</time>
      </trkpt>
      <trkpt lat="47.75486" lon="6.98613">
        <ele>544</ele>
        <time>2015-08-09T09:33:14Z</time>
      </trkpt>
      <trkpt lat="47.75484" lon="6.9862">
        <ele>543</ele>
        <time>2015-08-09T09:33:21Z</time>
      </trkpt>
      <trkpt lat="47.75485" lon="6.98629">
        <ele>543</ele>
        <time>2015-08-09T09:33:25Z</time>
      </trkpt>
      <trkpt lat="47.75488" lon="6.98642">
        <ele>542.1</ele>
        <time>2015-08-09T09:33:30Z</time>
      </trkpt>
      <trkpt lat="47.75488" lon="6.9865">
        <ele>542</ele>
        <time>2015-08-09T09:33:34Z</time>
      </trkpt>
      <trkpt lat="47.75484" lon="6.98662">
        <ele>541</ele>
        <time>2015-08-09T09:33:39Z</time>
      </trkpt>
      <trkpt lat="47.75483" lon="6.98669">
        <ele>540.5</ele>
        <time>2015-08-09T09:33:44Z</time>
      </trkpt>
      <trkpt lat="47.75481" lon="6.9868">
        <ele>540</ele>
        <time>2015-08-09T09:33:51Z</time>
      </trkpt>
      <trkpt lat="47.75479" lon="6.98686">
        <ele>539.3</ele>
        <time>2015-08-09T09:33:56Z</time>
      </trkpt>
      <trkpt lat="47.7548" lon="6.98693">
        <ele>537.8</ele>
        <time>2015-08-09T09:34:00Z</time>
      </trkpt>
      <trkpt lat="47.7548" lon="6.98701">
        <ele>536.4</ele>
        <time>2015-08-09T09:34:05Z</time>
      </trkpt>
      <trkpt lat="47.75476" lon="6.98714">
        <ele>526.5</ele>
        <time>2015-08-09T09:34:14Z</time>
      </trkpt>
      <trkpt lat="47.75468" lon="6.98733">
        <ele>522.1</ele>
        <time>2015-08-09T09:34:26Z</time>
      </trkpt>
      <trkpt lat="47.75468" lon="6.9874">
        <ele>521.5</ele>
        <time>2015-08-09T09:34:30Z</time>
      </trkpt>
      <trkpt lat="47.75468" lon="6.98753">
        <ele>521</ele>
        <time>2015-08-09T09:34:37Z</time>
      </trkpt>
      <trkpt lat="47.75468" lon="6.98767">
        <ele>521</ele>
        <time>2015-08-09T09:34:43Z</time>
      </trkpt>
      <trkpt lat="47.75466" lon="6.98775">
        <ele>520</ele>
        <time>2015-08-09T09:34:48Z</time>
      </trkpt>
      <trkpt lat="47.75467" lon="6.98782">
        <ele>520</ele>
        <time>2015-08-09T09:34:53Z</time>
      </trkpt>
      <trkpt lat="47.75467" lon="6.98789">
        <ele>520</ele>
        <time>2015-08-09T09:34:56Z</time>
      </trkpt>
      <trkpt lat="47.75467" lon="6.98797">
        <ele>520</ele>
        <time>2015-08-09T09:34:59Z</time>
      </trkpt>
      <trkpt lat="47.75465" lon="6.98803">
        <ele>520</ele>
        <time>2015-08-09T09:35:03Z</time>
      </trkpt>
      <trkpt lat="47.75461" lon="6.98809">
        <ele>521</ele>
        <time>2015-08-09T09:35:10Z</time>
      </trkpt>
      <trkpt lat="47.75459" lon="6.98816">
        <ele>521</ele>
        <time>2015-08-09T09:35:14Z</time>
      </trkpt>
      <trkpt lat="47.7546" lon="6.98824">
        <ele>521</ele>
        <time>2015-08-09T09:35:18Z</time>
      </trkpt>
      <trkpt lat="47.75461" lon="6.98834">
        <ele>522.9</ele>
        <time>2015-08-09T09:35:23Z</time>
      </trkpt>
      <trkpt lat="47.75459" lon="6.98841">
        <ele>522.9</ele>
        <time>2015-08-09T09:35:27Z</time>
      </trkpt>
      <trkpt lat="47.75459" lon="6.98849">
        <ele>523.9</ele>
        <time>2015-08-09T09:35:33Z</time>
      </trkpt>
      <trkpt lat="47.75459" lon="6.98855">
        <ele>524</ele>
        <time>2015-08-09T09:35:37Z</time>
      </trkpt>
      <trkpt lat="47.75458" lon="6.98863">
        <ele>524</ele>
        <time>2015-08-09T09:35:40Z</time>
      </trkpt>
      <trkpt lat="47.75456" lon="6.9888">
        <ele>524</ele>
        <time>2015-08-09T09:35:47Z</time>
      </trkpt>
      <trkpt lat="47.75454" lon="6.98887">
        <ele>524</ele>
        <time>2015-08-09T09:35:50Z</time>
      </trkpt>
      <trkpt lat="47.75458" lon="6.989">
        <ele>524</ele>
        <time>2015-08-09T09:35:58Z</time>
      </trkpt>
      <trkpt lat="47.75457" lon="6.98907">
        <ele>524</ele>
        <time>2015-08-09T09:36:02Z</time>
      </trkpt>
      <trkpt lat="47.75455" lon="6.98914">
        <ele>524</ele>
        <time>2015-08-09T09:36:06Z</time>
      </trkpt>
      <trkpt lat="47.75452" lon="6.9892">
        <ele>524</ele>
        <time>2015-08-09T09:36:09Z</time>
      </trkpt>
      <trkpt lat="47.75449" lon="6.98933">
        <ele>525</ele>
        <time>2015-08-09T09:36:15Z</time>
      </trkpt>
      <trkpt lat="47.75448" lon="6.9894">
        <ele>525</ele>
        <time>2015-08-09T09:36:19Z</time>
      </trkpt>
      <trkpt lat="47.75447" lon="6.98947">
        <ele>524</ele>
        <time>2015-08-09T09:36:23Z</time>
      </trkpt>
      <trkpt lat="47.75445" lon="6.98954">
        <ele>524</ele>
        <time>2015-08-09T09:36:27Z</time>
      </trkpt>
      <trkpt lat="47.75443" lon="6.98962">
        <ele>524</ele>
        <time>2015-08-09T09:36:31Z</time>
      </trkpt>
      <trkpt lat="47.7544" lon="6.98968">
        <ele>523.5</ele>
        <time>2015-08-09T09:36:34Z</time>
      </trkpt>
      <trkpt lat="47.75435" lon="6.98983">
        <ele>521</ele>
        <time>2015-08-09T09:36:48Z</time>
      </trkpt>
      <trkpt lat="47.75423" lon="6.98994">
        <ele>517.5</ele>
        <time>2015-08-09T09:37:00Z</time>
      </trkpt>
      <trkpt lat="47.7542" lon="6.99007">
        <ele>512.3</ele>
        <time>2015-08-09T09:37:05Z</time>
      </trkpt>
      <trkpt lat="47.75419" lon="6.99017">
        <ele>510</ele>
        <time>2015-08-09T09:37:10Z</time>
      </trkpt>
      <trkpt lat="47.75417" lon="6.99023">
        <ele>510</ele>
        <time>2015-08-09T09:37:14Z</time>
      </trkpt>
      <trkpt lat="47.75414" lon="6.9903">
        <ele>510</ele>
        <time>2015-08-09T09:37:18Z</time>
      </trkpt>
      <trkpt lat="47.75412" lon="6.9905">
        <ele>510</ele>
        <time>2015-08-09T09:37:30Z</time>
      </trkpt>
      <trkpt lat="47.7541" lon="6.99056">
        <ele>510</ele>
        <time>2015-08-09T09:37:35Z</time>
      </trkpt>
      <trkpt lat="47.75407" lon="6.99062">
        <ele>509.1</ele>
        <time>2015-08-09T09:37:41Z</time>
      </trkpt>
      <trkpt lat="47.75407" lon="6.99077">
        <ele>509</ele>
        <time>2015-08-09T09:37:48Z</time>
      </trkpt>
      <trkpt lat="47.75406" lon="6.99084">
        <ele>509</ele>
        <time>2015-08-09T09:37:51Z</time>
      </trkpt>
      <trkpt lat="47.75403" lon="6.9909">
        <ele>509</ele>
        <time>2015-08-09T09:37:54Z</time>
      </trkpt>
      <trkpt lat="47.75399" lon="6.99095">
        <ele>509</ele>
        <time>2015-08-09T09:37:59Z</time>
      </trkpt>
      <trkpt lat="47.75397" lon="6.99101">
        <ele>509</ele>
        <time>2015-08-09T09:38:03Z</time>
      </trkpt>
      <trkpt lat="47.75388" lon="6.9911">
        <ele>509</ele>
        <time>2015-08-09T09:38:10Z</time>
      </trkpt>
      <trkpt lat="47.75385" lon="6.99114">
        <ele>509</ele>
        <time>2015-08-09T09:38:15Z</time>
      </trkpt>
      <trkpt lat="47.7538" lon="6.99119">
        <ele>509</ele>
        <time>2015-08-09T09:38:20Z</time>
      </trkpt>
      <trkpt lat="47.7537" lon="6.99123">
        <ele>509</ele>
        <time>2015-08-09T09:38:27Z</time>
      </trkpt>
      <trkpt lat="47.75363" lon="6.99122">
        <ele>509</ele>
        <time>2015-08-09T09:38:36Z</time>
      </trkpt>
      <trkpt lat="47.75358" lon="6.9912">
        <ele>509</ele>
        <time>2015-08-09T09:38:41Z</time>
      </trkpt>
      <trkpt lat="47.75356" lon="6.99107">
        <ele>510</ele>
        <time>2015-08-09T09:38:58Z</time>
      </trkpt>
      <trkpt lat="47.7536" lon="6.99103">
        <ele>510</ele>
        <time>2015-08-09T09:39:04Z</time>
      </trkpt>
      <trkpt lat="47.75369" lon="6.99101">
        <ele>511</ele>
        <time>2015-08-09T09:39:21Z</time>
      </trkpt>
      <trkpt lat="47.75369" lon="6.99119">
        <ele>512</ele>
        <time>2015-08-09T09:39:33Z</time>
      </trkpt>
      <trkpt lat="47.7536" lon="6.99121">
        <ele>512</ele>
        <time>2015-08-09T09:39:39Z</time>
      </trkpt>
      <trkpt lat="47.75352" lon="6.99115">
        <ele>513</ele>
        <time>2015-08-09T09:39:45Z</time>
      </trkpt>
      <trkpt lat="47.75358" lon="6.99113">
        <ele>513</ele>
        <time>2015-08-09T09:39:58Z</time>
      </trkpt>
      <trkpt lat="47.75372" lon="6.99108">
        <ele>514</ele>
        <time>2015-08-09T09:40:05Z</time>
      </trkpt>
      <trkpt lat="47.75376" lon="6.99114">
        <ele>514</ele>
        <time>2015-08-09T09:40:10Z</time>
      </trkpt>
      <trkpt lat="47.75381" lon="6.99119">
        <ele>514</ele>
        <time>2015-08-09T09:40:14Z</time>
      </trkpt>
      <trkpt lat="47.75389" lon="6.99127">
        <ele>514</ele>
        <time>2015-08-09T09:40:19Z</time>
      </trkpt>
      <trkpt lat="47.75393" lon="6.99134">
        <ele>514</ele>
        <time>2015-08-09T09:40:22Z</time>
      </trkpt>
      <trkpt lat="47.75397" lon="6.99149">
        <ele>514</ele>
        <time>2015-08-09T09:40:28Z</time>
      </trkpt>
      <trkpt lat="47.75397" lon="6.99156">
        <ele>513.1</ele>
        <time>2015-08-09T09:40:31Z</time>
      </trkpt>
      <trkpt lat="47.75399" lon="6.99163">
        <ele>513.1</ele>
        <time>2015-08-09T09:40:34Z</time>
      </trkpt>
      <trkpt lat="47.75405" lon="6.99174">
        <ele>512.3</ele>
        <time>2015-08-09T09:40:40Z</time>
      </trkpt>
      <trkpt lat="47.75413" lon="6.99181">
        <ele>511.1</ele>
        <time>2015-08-09T09:40:44Z</time>
      </trkpt>
      <trkpt lat="47.75417" lon="6.99187">
        <ele>510.1</ele>
        <time>2015-08-09T09:40:47Z</time>
      </trkpt>
      <trkpt lat="47.75424" lon="6.99197">
        <ele>510</ele>
        <time>2015-08-09T09:40:55Z</time>
      </trkpt>
      <trkpt lat="47.75428" lon="6.992">
        <ele>510</ele>
        <time>2015-08-09T09:40:59Z</time>
      </trkpt>
      <trkpt lat="47.75434" lon="6.99203">
        <ele>510</ele>
        <time>2015-08-09T09:41:05Z</time>
      </trkpt>
      <trkpt lat="47.75438" lon="6.99206">
        <ele>510</ele>
        <time>2015-08-09T09:41:08Z</time>
      </trkpt>
      <trkpt lat="47.75443" lon="6.99205">
        <ele>510</ele>
        <time>2015-08-09T09:41:11Z</time>
      </trkpt>
      <trkpt lat="47.75453" lon="6.99203">
        <ele>510</ele>
        <time>2015-08-09T09:41:16Z</time>
      </trkpt>
      <trkpt lat="47.75463" lon="6.99207">
        <ele>510.8</ele>
        <time>2015-08-09T09:41:22Z</time>
      </trkpt>
      <trkpt lat="47.75473" lon="6.99209">
        <ele>511</ele>
        <time>2015-08-09T09:41:26Z</time>
      </trkpt>
      <trkpt lat="47.75483" lon="6.99208">
        <ele>511</ele>
        <time>2015-08-09T09:41:30Z</time>
      </trkpt>
      <trkpt lat="47.75487" lon="6.9921">
        <ele>511</ele>
        <time>2015-08-09T09:41:36Z</time>
      </trkpt>
      <trkpt lat="47.7549" lon="6.99224">
        <ele>511</ele>
        <time>2015-08-09T09:41:44Z</time>
      </trkpt>
      <trkpt lat="47.75497" lon="6.99234">
        <ele>511</ele>
        <time>2015-08-09T09:41:52Z</time>
      </trkpt>
      <trkpt lat="47.75502" lon="6.99242">
        <ele>511</ele>
        <time>2015-08-09T09:41:57Z</time>
      </trkpt>
      <trkpt lat="47.75507" lon="6.9924">
        <ele>511</ele>
        <time>2015-08-09T09:42:01Z</time>
      </trkpt>
      <trkpt lat="47.75511" lon="6.99245">
        <ele>510</ele>
        <time>2015-08-09T09:42:06Z</time>
      </trkpt>
      <trkpt lat="47.75512" lon="6.99253">
        <ele>506.3</ele>
        <time>2015-08-09T09:42:11Z</time>
      </trkpt>
      <trkpt lat="47.75518" lon="6.99264">
        <ele>505.1</ele>
        <time>2015-08-09T09:42:19Z</time>
      </trkpt>
      <trkpt lat="47.75523" lon="6.99268">
        <ele>505</ele>
        <time>2015-08-09T09:42:25Z</time>
      </trkpt>
      <trkpt lat="47.75525" lon="6.99274">
        <ele>504</ele>
        <time>2015-08-09T09:42:33Z</time>
      </trkpt>
      <trkpt lat="47.7553" lon="6.99277">
        <ele>504</ele>
        <time>2015-08-09T09:42:37Z</time>
      </trkpt>
      <trkpt lat="47.75536" lon="6.9928">
        <ele>503</ele>
        <time>2015-08-09T09:42:41Z</time>
      </trkpt>
      <trkpt lat="47.7554" lon="6.99283">
        <ele>503</ele>
        <time>2015-08-09T09:42:43Z</time>
      </trkpt>
      <trkpt lat="47.75549" lon="6.99289">
        <ele>503</ele>
        <time>2015-08-09T09:42:47Z</time>
      </trkpt>
      <trkpt lat="47.75559" lon="6.99293">
        <ele>502</ele>
        <time>2015-08-09T09:42:56Z</time>
      </trkpt>
      <trkpt lat="47.75562" lon="6.99308">
        <ele>501</ele>
        <time>2015-08-09T09:43:02Z</time>
      </trkpt>
      <trkpt lat="47.7556" lon="6.99315">
        <ele>501</ele>
        <time>2015-08-09T09:43:09Z</time>
      </trkpt>
      <trkpt lat="47.75563" lon="6.99326">
        <ele>500</ele>
        <time>2015-08-09T09:43:15Z</time>
      </trkpt>
      <trkpt lat="47.75567" lon="6.99331">
        <ele>500</ele>
        <time>2015-08-09T09:43:20Z</time>
      </trkpt>
      <trkpt lat="47.75574" lon="6.9934">
        <ele>499</ele>
        <time>2015-08-09T09:43:28Z</time>
      </trkpt>
      <trkpt lat="47.75574" lon="6.99348">
        <ele>498</ele>
        <time>2015-08-09T09:43:33Z</time>
      </trkpt>
      <trkpt lat="47.75576" lon="6.99356">
        <ele>497.3</ele>
        <time>2015-08-09T09:43:38Z</time>
      </trkpt>
      <trkpt lat="47.75578" lon="6.99376">
        <ele>494.8</ele>
        <time>2015-08-09T09:43:48Z</time>
      </trkpt>
      <trkpt lat="47.75581" lon="6.99389">
        <ele>488.4</ele>
        <time>2015-08-09T09:43:59Z</time>
      </trkpt>
      <trkpt lat="47.75585" lon="6.99402">
        <ele>486.1</ele>
        <time>2015-08-09T09:44:07Z</time>
      </trkpt>
      <trkpt lat="47.75587" lon="6.99408">
        <ele>485</ele>
        <time>2015-08-09T09:44:11Z</time>
      </trkpt>
      <trkpt lat="47.75586" lon="6.99415">
        <ele>483</ele>
        <time>2015-08-09T09:44:17Z</time>
      </trkpt>
      <trkpt lat="47.75583" lon="6.99429">
        <ele>482.1</ele>
        <time>2015-08-09T09:44:24Z</time>
      </trkpt>
      <trkpt lat="47.75582" lon="6.99436">
        <ele>482</ele>
        <time>2015-08-09T09:44:29Z</time>
      </trkpt>
      <trkpt lat="47.75583" lon="6.99444">
        <ele>481</ele>
        <time>2015-08-09T09:44:34Z</time>
      </trkpt>
      <trkpt lat="47.75588" lon="6.99446">
        <ele>480.5</ele>
        <time>2015-08-09T09:44:38Z</time>
      </trkpt>
      <trkpt lat="47.75591" lon="6.9945">
        <ele>478.2</ele>
        <time>2015-08-09T09:44:42Z</time>
      </trkpt>
      <trkpt lat="47.75594" lon="6.99457">
        <ele>477.1</ele>
        <time>2015-08-09T09:44:49Z</time>
      </trkpt>
      <trkpt lat="47.75598" lon="6.99461">
        <ele>477.1</ele>
        <time>2015-08-09T09:44:52Z</time>
      </trkpt>
      <trkpt lat="47.75609" lon="6.99464">
        <ele>476.5</ele>
        <time>2015-08-09T09:44:58Z</time>
      </trkpt>
      <trkpt lat="47.75614" lon="6.99466">
        <ele>475.1</ele>
        <time>2015-08-09T09:45:04Z</time>
      </trkpt>
      <trkpt lat="47.75615" lon="6.99474">
        <ele>475.1</ele>
        <time>2015-08-09T09:45:08Z</time>
      </trkpt>
      <trkpt lat="47.75617" lon="6.9948">
        <ele>475</ele>
        <time>2015-08-09T09:45:12Z</time>
      </trkpt>
      <trkpt lat="47.7562" lon="6.99485">
        <ele>475</ele>
        <time>2015-08-09T09:45:18Z</time>
      </trkpt>
      <trkpt lat="47.75622" lon="6.99491">
        <ele>475</ele>
        <time>2015-08-09T09:45:21Z</time>
      </trkpt>
      <trkpt lat="47.75625" lon="6.99498">
        <ele>475</ele>
        <time>2015-08-09T09:45:25Z</time>
      </trkpt>
      <trkpt lat="47.75633" lon="6.99507">
        <ele>474</ele>
        <time>2015-08-09T09:45:33Z</time>
      </trkpt>
      <trkpt lat="47.75636" lon="6.99515">
        <ele>473.5</ele>
        <time>2015-08-09T09:45:37Z</time>
      </trkpt>
      <trkpt lat="47.75637" lon="6.99522">
        <ele>472.3</ele>
        <time>2015-08-09T09:45:41Z</time>
      </trkpt>
      <trkpt lat="47.75641" lon="6.99528">
        <ele>472</ele>
        <time>2015-08-09T09:45:46Z</time>
      </trkpt>
      <trkpt lat="47.75646" lon="6.9954">
        <ele>469.4</ele>
        <time>2015-08-09T09:45:52Z</time>
      </trkpt>
      <trkpt lat="47.75651" lon="6.99545">
        <ele>469</ele>
        <time>2015-08-09T09:45:55Z</time>
      </trkpt>
      <trkpt lat="47.75656" lon="6.9955">
        <ele>469</ele>
        <time>2015-08-09T09:45:58Z</time>
      </trkpt>
      <trkpt lat="47.7566" lon="6.99555">
        <ele>469</ele>
        <time>2015-08-09T09:46:03Z</time>
      </trkpt>
      <trkpt lat="47.75655" lon="6.99568">
        <ele>469</ele>
        <time>2015-08-09T09:46:08Z</time>
      </trkpt>
      <trkpt lat="47.75656" lon="6.99574">
        <ele>468.1</ele>
        <time>2015-08-09T09:46:15Z</time>
      </trkpt>
      <trkpt lat="47.75657" lon="6.99589">
        <ele>467.5</ele>
        <time>2015-08-09T09:46:22Z</time>
      </trkpt>
      <trkpt lat="47.75655" lon="6.99595">
        <ele>467</ele>
        <time>2015-08-09T09:46:26Z</time>
      </trkpt>
      <trkpt lat="47.75653" lon="6.99609">
        <ele>467</ele>
        <time>2015-08-09T09:46:35Z</time>
      </trkpt>
      <trkpt lat="47.75653" lon="6.99618">
        <ele>465.5</ele>
        <time>2015-08-09T09:46:42Z</time>
      </trkpt>
      <trkpt lat="47.75656" lon="6.99623">
        <ele>465.5</ele>
        <time>2015-08-09T09:46:46Z</time>
      </trkpt>
      <trkpt lat="47.75661" lon="6.99635">
        <ele>463.8</ele>
        <time>2015-08-09T09:46:52Z</time>
      </trkpt>
      <trkpt lat="47.75668" lon="6.99653">
        <ele>461</ele>
        <time>2015-08-09T09:47:02Z</time>
      </trkpt>
      <trkpt lat="47.75676" lon="6.99645">
        <ele>460.5</ele>
        <time>2015-08-09T09:47:07Z</time>
      </trkpt>
      <trkpt lat="47.75682" lon="6.99647">
        <ele>460</ele>
        <time>2015-08-09T09:47:11Z</time>
      </trkpt>
      <trkpt lat="47.7568" lon="6.99653">
        <ele>460</ele>
        <time>2015-08-09T09:47:14Z</time>
      </trkpt>
      <trkpt lat="47.75675" lon="6.99667">
        <ele>460</ele>
        <time>2015-08-09T09:47:19Z</time>
      </trkpt>
      <trkpt lat="47.75675" lon="6.99675">
        <ele>460</ele>
        <time>2015-08-09T09:47:22Z</time>
      </trkpt>
      <trkpt lat="47.75678" lon="6.99689">
        <ele>459</ele>
        <time>2015-08-09T09:47:30Z</time>
      </trkpt>
      <trkpt lat="47.75676" lon="6.99711">
        <ele>455.1</ele>
        <time>2015-08-09T09:47:40Z</time>
      </trkpt>
      <trkpt lat="47.75676" lon="6.99718">
        <ele>453.3</ele>
        <time>2015-08-09T09:47:43Z</time>
      </trkpt>
      <trkpt lat="47.75675" lon="6.99727">
        <ele>451.3</ele>
        <time>2015-08-09T09:47:47Z</time>
      </trkpt>
      <trkpt lat="47.75676" lon="6.99734">
        <ele>451.3</ele>
        <time>2015-08-09T09:47:50Z</time>
      </trkpt>
      <trkpt lat="47.75678" lon="6.99741">
        <ele>449.3</ele>
        <time>2015-08-09T09:47:53Z</time>
      </trkpt>
      <trkpt lat="47.75681" lon="6.99752">
        <ele>449.3</ele>
        <time>2015-08-09T09:47:57Z</time>
      </trkpt>
      <trkpt lat="47.75683" lon="6.9976">
        <ele>448.1</ele>
        <time>2015-08-09T09:48:00Z</time>
      </trkpt>
      <trkpt lat="47.75683" lon="6.99768">
        <ele>448</ele>
        <time>2015-08-09T09:48:05Z</time>
      </trkpt>
      <trkpt lat="47.75688" lon="6.99773">
        <ele>448</ele>
        <time>2015-08-09T09:48:08Z</time>
      </trkpt>
      <trkpt lat="47.75687" lon="6.99781">
        <ele>448</ele>
        <time>2015-08-09T09:48:12Z</time>
      </trkpt>
      <trkpt lat="47.75682" lon="6.99789">
        <ele>447.1</ele>
        <time>2015-08-09T09:48:16Z</time>
      </trkpt>
      <trkpt lat="47.75681" lon="6.99797">
        <ele>447</ele>
        <time>2015-08-09T09:48:21Z</time>
      </trkpt>
      <trkpt lat="47.7568" lon="6.99811">
        <ele>447</ele>
        <time>2015-08-09T09:48:28Z</time>
      </trkpt>
      <trkpt lat="47.75681" lon="6.99819">
        <ele>446.1</ele>
        <time>2015-08-09T09:48:32Z</time>
      </trkpt>
      <trkpt lat="47.75682" lon="6.99826">
        <ele>446.1</ele>
        <time>2015-08-09T09:48:36Z</time>
      </trkpt>
      <trkpt lat="47.75682" lon="6.9984">
        <ele>446</ele>
        <time>2015-08-09T09:48:42Z</time>
      </trkpt>
      <trkpt lat="47.75679" lon="6.99854">
        <ele>446</ele>
        <time>2015-08-09T09:48:49Z</time>
      </trkpt>
      <trkpt lat="47.75679" lon="6.99861">
        <ele>445</ele>
        <time>2015-08-09T09:48:53Z</time>
      </trkpt>
      <trkpt lat="47.75682" lon="6.99881">
        <ele>445</ele>
        <time>2015-08-09T09:49:04Z</time>
      </trkpt>
      <trkpt lat="47.75685" lon="6.99894">
        <ele>444.1</ele>
        <time>2015-08-09T09:49:11Z</time>
      </trkpt>
      <trkpt lat="47.75678" lon="6.99913">
        <ele>444</ele>
        <time>2015-08-09T09:49:18Z</time>
      </trkpt>
      <trkpt lat="47.75675" lon="6.99918">
        <ele>444</ele>
        <time>2015-08-09T09:49:23Z</time>
      </trkpt>
      <trkpt lat="47.75667" lon="6.99936">
        <ele>444</ele>
        <time>2015-08-09T09:49:32Z</time>
      </trkpt>
      <trkpt lat="47.75667" lon="6.99943">
        <ele>444</ele>
        <time>2015-08-09T09:49:37Z</time>
      </trkpt>
      <trkpt lat="47.75665" lon="6.99949">
        <ele>444</ele>
        <time>2015-08-09T09:49:42Z</time>
      </trkpt>
      <trkpt lat="47.75662" lon="6.99971">
        <ele>444</ele>
        <time>2015-08-09T09:49:52Z</time>
      </trkpt>
      <trkpt lat="47.7566" lon="6.99979">
        <ele>443.1</ele>
        <time>2015-08-09T09:49:56Z</time>
      </trkpt>
      <trkpt lat="47.75658" lon="6.99994">
        <ele>443</ele>
        <time>2015-08-09T09:50:02Z</time>
      </trkpt>
      <trkpt lat="47.7566" lon="7">
        <ele>442.1</ele>
        <time>2015-08-09T09:50:05Z</time>
      </trkpt>
      <trkpt lat="47.75663" lon="7.00006">
        <ele>442.1</ele>
        <time>2015-08-09T09:50:08Z</time>
      </trkpt>
      <trkpt lat="47.75674" lon="7.00019">
        <ele>441</ele>
        <time>2015-08-09T09:50:18Z</time>
      </trkpt>
      <trkpt lat="47.75676" lon="7.00028">
        <ele>441</ele>
        <time>2015-08-09T09:50:21Z</time>
      </trkpt>
      <trkpt lat="47.75675" lon="7.00039">
        <ele>440</ele>
        <time>2015-08-09T09:50:26Z</time>
      </trkpt>
      <trkpt lat="47.75674" lon="7.00049">
        <ele>440</ele>
        <time>2015-08-09T09:50:30Z</time>
      </trkpt>
      <trkpt lat="47.75674" lon="7.00061">
        <ele>438.6</ele>
        <time>2015-08-09T09:50:37Z</time>
      </trkpt>
      <trkpt lat="47.75673" lon="7.00067">
        <ele>438.6</ele>
        <time>2015-08-09T09:50:41Z</time>
      </trkpt>
      <trkpt lat="47.75672" lon="7.00075">
        <ele>436.1</ele>
        <time>2015-08-09T09:50:45Z</time>
      </trkpt>
      <trkpt lat="47.75672" lon="7.00082">
        <ele>435</ele>
        <time>2015-08-09T09:50:50Z</time>
      </trkpt>
      <trkpt lat="47.75672" lon="7.00097">
        <ele>434.1</ele>
        <time>2015-08-09T09:50:58Z</time>
      </trkpt>
      <trkpt lat="47.75675" lon="7.00103">
        <ele>431.1</ele>
        <time>2015-08-09T09:51:12Z</time>
      </trkpt>
      <trkpt lat="47.75677" lon="7.00109">
        <ele>431</ele>
        <time>2015-08-09T09:51:17Z</time>
      </trkpt>
      <trkpt lat="47.75674" lon="7.00115">
        <ele>429.2</ele>
        <time>2015-08-09T09:51:21Z</time>
      </trkpt>
      <trkpt lat="47.75666" lon="7.00133">
        <ele>426.7</ele>
        <time>2015-08-09T09:51:29Z</time>
      </trkpt>
      <trkpt lat="47.7566" lon="7.00151">
        <ele>425</ele>
        <time>2015-08-09T09:51:36Z</time>
      </trkpt>
      <trkpt lat="47.75659" lon="7.00159">
        <ele>424</ele>
        <time>2015-08-09T09:51:40Z</time>
      </trkpt>
      <trkpt lat="47.75659" lon="7.00167">
        <ele>424</ele>
        <time>2015-08-09T09:51:44Z</time>
      </trkpt>
      <trkpt lat="47.75657" lon="7.0018">
        <ele>424</ele>
        <time>2015-08-09T09:51:51Z</time>
      </trkpt>
      <trkpt lat="47.75655" lon="7.00188">
        <ele>424</ele>
        <time>2015-08-09T09:51:56Z</time>
      </trkpt>
      <trkpt lat="47.75646" lon="7.00205">
        <ele>424</ele>
        <time>2015-08-09T09:52:10Z</time>
      </trkpt>
      <trkpt lat="47.75638" lon="7.00223">
        <ele>423</ele>
        <time>2015-08-09T09:52:22Z</time>
      </trkpt>
      <trkpt lat="47.75636" lon="7.00229">
        <ele>421.3</ele>
        <time>2015-08-09T09:52:26Z</time>
      </trkpt>
      <trkpt lat="47.75628" lon="7.00246">
        <ele>419.4</ele>
        <time>2015-08-09T09:52:37Z</time>
      </trkpt>
      <trkpt lat="47.75625" lon="7.00253">
        <ele>419</ele>
        <time>2015-08-09T09:52:41Z</time>
      </trkpt>
      <trkpt lat="47.75622" lon="7.00259">
        <ele>418</ele>
        <time>2015-08-09T09:52:45Z</time>
      </trkpt>
      <trkpt lat="47.7562" lon="7.00266">
        <ele>418</ele>
        <time>2015-08-09T09:52:49Z</time>
      </trkpt>
      <trkpt lat="47.75616" lon="7.00273">
        <ele>418</ele>
        <time>2015-08-09T09:52:54Z</time>
      </trkpt>
      <trkpt lat="47.75611" lon="7.00285">
        <ele>418</ele>
        <time>2015-08-09T09:53:02Z</time>
      </trkpt>
      <trkpt lat="47.75607" lon="7.00291">
        <ele>418</ele>
        <time>2015-08-09T09:53:06Z</time>
      </trkpt>
      <trkpt lat="47.75605" lon="7.00298">
        <ele>418</ele>
        <time>2015-08-09T09:53:10Z</time>
      </trkpt>
      <trkpt lat="47.75602" lon="7.00304">
        <ele>418</ele>
        <time>2015-08-09T09:53:14Z</time>
      </trkpt>
      <trkpt lat="47.75594" lon="7.00321">
        <ele>419</ele>
        <time>2015-08-09T09:53:24Z</time>
      </trkpt>
      <trkpt lat="47.7559" lon="7.00326">
        <ele>421</ele>
        <time>2015-08-09T09:53:28Z</time>
      </trkpt>
      <trkpt lat="47.75584" lon="7.00337">
        <ele>421.9</ele>
        <time>2015-08-09T09:53:36Z</time>
      </trkpt>
      <trkpt lat="47.7558" lon="7.00342">
        <ele>422.9</ele>
        <time>2015-08-09T09:53:40Z</time>
      </trkpt>
      <trkpt lat="47.75576" lon="7.00346">
        <ele>423.5</ele>
        <time>2015-08-09T09:53:44Z</time>
      </trkpt>
      <trkpt lat="47.75564" lon="7.00357">
        <ele>425</ele>
        <time>2015-08-09T09:53:57Z</time>
      </trkpt>
      <trkpt lat="47.75558" lon="7.00359">
        <ele>426</ele>
        <time>2015-08-09T09:54:05Z</time>
      </trkpt>
      <trkpt lat="47.75558" lon="7.00367">
        <ele>426</ele>
        <time>2015-08-09T09:54:10Z</time>
      </trkpt>
      <trkpt lat="47.75556" lon="7.00375">
        <ele>427</ele>
        <time>2015-08-09T09:54:15Z</time>
      </trkpt>
      <trkpt lat="47.75555" lon="7.00383">
        <ele>427.9</ele>
        <time>2015-08-09T09:54:36Z</time>
      </trkpt>
      <trkpt lat="47.75557" lon="7.00391">
        <ele>428</ele>
        <time>2015-08-09T09:54:39Z</time>
      </trkpt>
      <trkpt lat="47.75557" lon="7.00399">
        <ele>428</ele>
        <time>2015-08-09T09:54:43Z</time>
      </trkpt>
      <trkpt lat="47.75555" lon="7.00413">
        <ele>428</ele>
        <time>2015-08-09T09:54:49Z</time>
      </trkpt>
      <trkpt lat="47.75555" lon="7.00419">
        <ele>428</ele>
        <time>2015-08-09T09:54:52Z</time>
      </trkpt>
      <trkpt lat="47.75553" lon="7.00428">
        <ele>428</ele>
        <time>2015-08-09T09:54:56Z</time>
      </trkpt>
      <trkpt lat="47.75553" lon="7.00435">
        <ele>428</ele>
        <time>2015-08-09T09:55:00Z</time>
      </trkpt>
      <trkpt lat="47.75552" lon="7.00443">
        <ele>428</ele>
        <time>2015-08-09T09:55:04Z</time>
      </trkpt>
      <trkpt lat="47.75555" lon="7.00449">
        <ele>428</ele>
        <time>2015-08-09T09:55:08Z</time>
      </trkpt>
      <trkpt lat="47.75557" lon="7.00456">
        <ele>428</ele>
        <time>2015-08-09T09:55:15Z</time>
      </trkpt>
      <trkpt lat="47.75556" lon="7.0047">
        <ele>428</ele>
        <time>2015-08-09T09:55:23Z</time>
      </trkpt>
      <trkpt lat="47.75554" lon="7.00476">
        <ele>428</ele>
        <time>2015-08-09T09:55:26Z</time>
      </trkpt>
      <trkpt lat="47.75551" lon="7.00489">
        <ele>428.9</ele>
        <time>2015-08-09T09:55:32Z</time>
      </trkpt>
      <trkpt lat="47.75551" lon="7.0051">
        <ele>429</ele>
        <time>2015-08-09T09:55:42Z</time>
      </trkpt>
      <trkpt lat="47.75551" lon="7.00517">
        <ele>429</ele>
        <time>2015-08-09T09:55:46Z</time>
      </trkpt>
      <trkpt lat="47.75548" lon="7.00524">
        <ele>429</ele>
        <time>2015-08-09T09:55:50Z</time>
      </trkpt>
      <trkpt lat="47.75546" lon="7.00532">
        <ele>429</ele>
        <time>2015-08-09T09:55:56Z</time>
      </trkpt>
      <trkpt lat="47.75542" lon="7.00536">
        <ele>429</ele>
        <time>2015-08-09T09:56:00Z</time>
      </trkpt>
      <trkpt lat="47.7554" lon="7.00543">
        <ele>429</ele>
        <time>2015-08-09T09:56:05Z</time>
      </trkpt>
      <trkpt lat="47.75537" lon="7.00556">
        <ele>429</ele>
        <time>2015-08-09T09:56:11Z</time>
      </trkpt>
      <trkpt lat="47.75536" lon="7.00564">
        <ele>429</ele>
        <time>2015-08-09T09:56:16Z</time>
      </trkpt>
      <trkpt lat="47.75534" lon="7.00573">
        <ele>428</ele>
        <time>2015-08-09T09:56:20Z</time>
      </trkpt>
      <trkpt lat="47.75534" lon="7.0058">
        <ele>428</ele>
        <time>2015-08-09T09:56:23Z</time>
      </trkpt>
      <trkpt lat="47.75537" lon="7.00594">
        <ele>425.4</ele>
        <time>2015-08-09T09:56:31Z</time>
      </trkpt>
      <trkpt lat="47.75531" lon="7.00604">
        <ele>425</ele>
        <time>2015-08-09T09:56:35Z</time>
      </trkpt>
      <trkpt lat="47.75532" lon="7.00612">
        <ele>424.1</ele>
        <time>2015-08-09T09:56:40Z</time>
      </trkpt>
      <trkpt lat="47.75537" lon="7.00623">
        <ele>423</ele>
        <time>2015-08-09T09:56:47Z</time>
      </trkpt>
      <trkpt lat="47.75539" lon="7.00631">
        <ele>423</ele>
        <time>2015-08-09T09:56:52Z</time>
      </trkpt>
      <trkpt lat="47.75538" lon="7.00647">
        <ele>422</ele>
        <time>2015-08-09T09:56:57Z</time>
      </trkpt>
      <trkpt lat="47.75539" lon="7.00668">
        <ele>422</ele>
        <time>2015-08-09T09:57:05Z</time>
      </trkpt>
      <trkpt lat="47.75541" lon="7.00676">
        <ele>422</ele>
        <time>2015-08-09T09:57:09Z</time>
      </trkpt>
      <trkpt lat="47.75542" lon="7.00683">
        <ele>422</ele>
        <time>2015-08-09T09:57:13Z</time>
      </trkpt>
      <trkpt lat="47.75541" lon="7.00691">
        <ele>422</ele>
        <time>2015-08-09T09:57:17Z</time>
      </trkpt>
      <trkpt lat="47.7554" lon="7.00702">
        <ele>422.9</ele>
        <time>2015-08-09T09:57:23Z</time>
      </trkpt>
      <trkpt lat="47.75541" lon="7.0071">
        <ele>422.9</ele>
        <time>2015-08-09T09:57:27Z</time>
      </trkpt>
      <trkpt lat="47.75538" lon="7.00722">
        <ele>423.5</ele>
        <time>2015-08-09T09:57:33Z</time>
      </trkpt>
      <trkpt lat="47.75535" lon="7.00728">
        <ele>424.7</ele>
        <time>2015-08-09T09:57:37Z</time>
      </trkpt>
      <trkpt lat="47.75534" lon="7.00743">
        <ele>426.5</ele>
        <time>2015-08-09T09:57:45Z</time>
      </trkpt>
      <trkpt lat="47.75531" lon="7.00764">
        <ele>427</ele>
        <time>2015-08-09T09:57:55Z</time>
      </trkpt>
      <trkpt lat="47.75529" lon="7.00771">
        <ele>427</ele>
        <time>2015-08-09T09:58:00Z</time>
      </trkpt>
      <trkpt lat="47.75529" lon="7.00778">
        <ele>427</ele>
        <time>2015-08-09T09:58:04Z</time>
      </trkpt>
      <trkpt lat="47.75532" lon="7.00783">
        <ele>427</ele>
        <time>2015-08-09T09:58:09Z</time>
      </trkpt>
      <trkpt lat="47.75536" lon="7.00787">
        <ele>427</ele>
        <time>2015-08-09T09:58:15Z</time>
      </trkpt>
      <trkpt lat="47.7555" lon="7.00789">
        <ele>426</ele>
        <time>2015-08-09T09:58:27Z</time>
      </trkpt>
      <trkpt lat="47.75555" lon="7.00787">
        <ele>425</ele>
        <time>2015-08-09T09:58:32Z</time>
      </trkpt>
      <trkpt lat="47.7556" lon="7.00786">
        <ele>424.1</ele>
        <time>2015-08-09T09:58:38Z</time>
      </trkpt>
      <trkpt lat="47.75574" lon="7.00785">
        <ele>424</ele>
        <time>2015-08-09T09:58:46Z</time>
      </trkpt>
      <trkpt lat="47.75579" lon="7.00786">
        <ele>424</ele>
        <time>2015-08-09T09:58:49Z</time>
      </trkpt>
      <trkpt lat="47.75586" lon="7.00787">
        <ele>424</ele>
        <time>2015-08-09T09:58:52Z</time>
      </trkpt>
      <trkpt lat="47.75596" lon="7.00793">
        <ele>424</ele>
        <time>2015-08-09T09:58:57Z</time>
      </trkpt>
      <trkpt lat="47.75603" lon="7.00801">
        <ele>424</ele>
        <time>2015-08-09T09:59:04Z</time>
      </trkpt>
      <trkpt lat="47.75607" lon="7.00806">
        <ele>424</ele>
        <time>2015-08-09T09:59:08Z</time>
      </trkpt>
      <trkpt lat="47.7561" lon="7.0081">
        <ele>424</ele>
        <time>2015-08-09T09:59:11Z</time>
      </trkpt>
      <trkpt lat="47.75613" lon="7.00831">
        <ele>424</ele>
        <time>2015-08-09T09:59:21Z</time>
      </trkpt>
      <trkpt lat="47.75617" lon="7.00836">
        <ele>424</ele>
        <time>2015-08-09T09:59:27Z</time>
      </trkpt>
      <trkpt lat="47.75628" lon="7.00848">
        <ele>424</ele>
        <time>2015-08-09T09:59:36Z</time>
      </trkpt>
      <trkpt lat="47.75632" lon="7.00855">
        <ele>423.5</ele>
        <time>2015-08-09T09:59:40Z</time>
      </trkpt>
      <trkpt lat="47.75636" lon="7.00867">
        <ele>423</ele>
        <time>2015-08-09T09:59:47Z</time>
      </trkpt>
      <trkpt lat="47.75636" lon="7.00875">
        <ele>421.3</ele>
        <time>2015-08-09T09:59:51Z</time>
      </trkpt>
      <trkpt lat="47.7564" lon="7.0088">
        <ele>421.3</ele>
        <time>2015-08-09T09:59:54Z</time>
      </trkpt>
      <trkpt lat="47.75643" lon="7.00885">
        <ele>419.3</ele>
        <time>2015-08-09T09:59:57Z</time>
      </trkpt>
      <trkpt lat="47.75648" lon="7.00892">
        <ele>419</ele>
        <time>2015-08-09T10:00:02Z</time>
      </trkpt>
      <trkpt lat="47.75654" lon="7.00902">
        <ele>418.1</ele>
        <time>2015-08-09T10:00:09Z</time>
      </trkpt>
      <trkpt lat="47.75656" lon="7.0091">
        <ele>418</ele>
        <time>2015-08-09T10:00:13Z</time>
      </trkpt>
      <trkpt lat="47.75662" lon="7.00921">
        <ele>417</ele>
        <time>2015-08-09T10:00:22Z</time>
      </trkpt>
      <trkpt lat="47.75665" lon="7.00927">
        <ele>416</ele>
        <time>2015-08-09T10:00:27Z</time>
      </trkpt>
      <trkpt lat="47.75666" lon="7.00934">
        <ele>416</ele>
        <time>2015-08-09T10:00:32Z</time>
      </trkpt>
      <trkpt lat="47.75666" lon="7.00941">
        <ele>416</ele>
        <time>2015-08-09T10:00:36Z</time>
      </trkpt>
      <trkpt lat="47.75668" lon="7.00949">
        <ele>416</ele>
        <time>2015-08-09T10:00:41Z</time>
      </trkpt>
      <trkpt lat="47.75671" lon="7.00953">
        <ele>415</ele>
        <time>2015-08-09T10:00:45Z</time>
      </trkpt>
      <trkpt lat="47.75675" lon="7.00957">
        <ele>415</ele>
        <time>2015-08-09T10:00:49Z</time>
      </trkpt>
      <trkpt lat="47.75678" lon="7.00962">
        <ele>415</ele>
        <time>2015-08-09T10:00:53Z</time>
      </trkpt>
      <trkpt lat="47.7568" lon="7.00969">
        <ele>412.3</ele>
        <time>2015-08-09T10:00:57Z</time>
      </trkpt>
      <trkpt lat="47.75677" lon="7.00982">
        <ele>408.8</ele>
        <time>2015-08-09T10:01:04Z</time>
      </trkpt>
      <trkpt lat="47.75677" lon="7.00989">
        <ele>407.1</ele>
        <time>2015-08-09T10:01:08Z</time>
      </trkpt>
      <trkpt lat="47.75681" lon="7.01002">
        <ele>407</ele>
        <time>2015-08-09T10:01:17Z</time>
      </trkpt>
      <trkpt lat="47.75685" lon="7.01008">
        <ele>407</ele>
        <time>2015-08-09T10:01:21Z</time>
      </trkpt>
      <trkpt lat="47.75691" lon="7.01019">
        <ele>406</ele>
        <time>2015-08-09T10:01:29Z</time>
      </trkpt>
      <trkpt lat="47.75694" lon="7.01026">
        <ele>404.1</ele>
        <time>2015-08-09T10:01:34Z</time>
      </trkpt>
      <trkpt lat="47.75697" lon="7.01031">
        <ele>404.1</ele>
        <time>2015-08-09T10:01:38Z</time>
      </trkpt>
      <trkpt lat="47.757" lon="7.01036">
        <ele>403.1</ele>
        <time>2015-08-09T10:01:42Z</time>
      </trkpt>
      <trkpt lat="47.75704" lon="7.01041">
        <ele>402.5</ele>
        <time>2015-08-09T10:01:48Z</time>
      </trkpt>
      <trkpt lat="47.75708" lon="7.0105">
        <ele>401</ele>
        <time>2015-08-09T10:01:55Z</time>
      </trkpt>
      <trkpt lat="47.7571" lon="7.01058">
        <ele>401</ele>
        <time>2015-08-09T10:02:00Z</time>
      </trkpt>
      <trkpt lat="47.7571" lon="7.01065">
        <ele>401</ele>
        <time>2015-08-09T10:02:05Z</time>
      </trkpt>
      <trkpt lat="47.75713" lon="7.01078">
        <ele>401</ele>
        <time>2015-08-09T10:02:12Z</time>
      </trkpt>
      <trkpt lat="47.75718" lon="7.0108">
        <ele>401</ele>
        <time>2015-08-09T10:02:18Z</time>
      </trkpt>
      <trkpt lat="47.7572" lon="7.01086">
        <ele>401</ele>
        <time>2015-08-09T10:02:23Z</time>
      </trkpt>
      <trkpt lat="47.7572" lon="7.01094">
        <ele>400.5</ele>
        <time>2015-08-09T10:02:27Z</time>
      </trkpt>
      <trkpt lat="47.75722" lon="7.01102">
        <ele>397.5</ele>
        <time>2015-08-09T10:02:32Z</time>
      </trkpt>
      <trkpt lat="47.75723" lon="7.01109">
        <ele>397.5</ele>
        <time>2015-08-09T10:02:35Z</time>
      </trkpt>
      <trkpt lat="47.75724" lon="7.01123">
        <ele>394.2</ele>
        <time>2015-08-09T10:02:41Z</time>
      </trkpt>
      <trkpt lat="47.75722" lon="7.01136">
        <ele>393</ele>
        <time>2015-08-09T10:02:48Z</time>
      </trkpt>
      <trkpt lat="47.75721" lon="7.01144">
        <ele>392.1</ele>
        <time>2015-08-09T10:02:52Z</time>
      </trkpt>
      <trkpt lat="47.75718" lon="7.0115">
        <ele>392</ele>
        <time>2015-08-09T10:02:56Z</time>
      </trkpt>
      <trkpt lat="47.75713" lon="7.01153">
        <ele>392</ele>
        <time>2015-08-09T10:02:59Z</time>
      </trkpt>
      <trkpt lat="47.7571" lon="7.01159">
        <ele>391.5</ele>
        <time>2015-08-09T10:03:03Z</time>
      </trkpt>
      <trkpt lat="47.7571" lon="7.01166">
        <ele>391</ele>
        <time>2015-08-09T10:03:08Z</time>
      </trkpt>
      <trkpt lat="47.75713" lon="7.01172">
        <ele>391</ele>
        <time>2015-08-09T10:03:11Z</time>
      </trkpt>
      <trkpt lat="47.75712" lon="7.01183">
        <ele>390.3</ele>
        <time>2015-08-09T10:03:16Z</time>
      </trkpt>
      <trkpt lat="47.7571" lon="7.01199">
        <ele>389.1</ele>
        <time>2015-08-09T10:03:25Z</time>
      </trkpt>
      <trkpt lat="47.75709" lon="7.01206">
        <ele>389</ele>
        <time>2015-08-09T10:03:28Z</time>
      </trkpt>
      <trkpt lat="47.75706" lon="7.01226">
        <ele>387.1</ele>
        <time>2015-08-09T10:03:38Z</time>
      </trkpt>
      <trkpt lat="47.75703" lon="7.01232">
        <ele>387</ele>
        <time>2015-08-09T10:03:42Z</time>
      </trkpt>
      <trkpt lat="47.75704" lon="7.01249">
        <ele>387</ele>
        <time>2015-08-09T10:03:50Z</time>
      </trkpt>
      <trkpt lat="47.75704" lon="7.01256">
        <ele>387</ele>
        <time>2015-08-09T10:03:53Z</time>
      </trkpt>
      <trkpt lat="47.75702" lon="7.01263">
        <ele>387</ele>
        <time>2015-08-09T10:03:58Z</time>
      </trkpt>
      <trkpt lat="47.75698" lon="7.01273">
        <ele>387</ele>
        <time>2015-08-09T10:04:04Z</time>
      </trkpt>
      <trkpt lat="47.75695" lon="7.01279">
        <ele>387</ele>
        <time>2015-08-09T10:04:07Z</time>
      </trkpt>
      <trkpt lat="47.75687" lon="7.01297">
        <ele>387.8</ele>
        <time>2015-08-09T10:04:17Z</time>
      </trkpt>
      <trkpt lat="47.75687" lon="7.01311">
        <ele>388</ele>
        <time>2015-08-09T10:04:24Z</time>
      </trkpt>
      <trkpt lat="47.75686" lon="7.01318">
        <ele>388.9</ele>
        <time>2015-08-09T10:04:28Z</time>
      </trkpt>
      <trkpt lat="47.75686" lon="7.01327">
        <ele>389</ele>
        <time>2015-08-09T10:04:32Z</time>
      </trkpt>
      <trkpt lat="47.75687" lon="7.01333">
        <ele>389</ele>
        <time>2015-08-09T10:04:35Z</time>
      </trkpt>
      <trkpt lat="47.75686" lon="7.01348">
        <ele>389</ele>
        <time>2015-08-09T10:04:42Z</time>
      </trkpt>
      <trkpt lat="47.75684" lon="7.01363">
        <ele>389</ele>
        <time>2015-08-09T10:04:50Z</time>
      </trkpt>
      <trkpt lat="47.75681" lon="7.01368">
        <ele>389</ele>
        <time>2015-08-09T10:04:54Z</time>
      </trkpt>
      <trkpt lat="47.75672" lon="7.01374">
        <ele>389</ele>
        <time>2015-08-09T10:05:00Z</time>
      </trkpt>
      <trkpt lat="47.75673" lon="7.01382">
        <ele>388.1</ele>
        <time>2015-08-09T10:05:06Z</time>
      </trkpt>
      <trkpt lat="47.75672" lon="7.0139">
        <ele>388</ele>
        <time>2015-08-09T10:05:10Z</time>
      </trkpt>
      <trkpt lat="47.75664" lon="7.01407">
        <ele>387</ele>
        <time>2015-08-09T10:05:20Z</time>
      </trkpt>
      <trkpt lat="47.75654" lon="7.01421">
        <ele>381.2</ele>
        <time>2015-08-09T10:05:30Z</time>
      </trkpt>
      <trkpt lat="47.75649" lon="7.01433">
        <ele>381</ele>
        <time>2015-08-09T10:05:38Z</time>
      </trkpt>
      <trkpt lat="47.75642" lon="7.01442">
        <ele>381</ele>
        <time>2015-08-09T10:05:45Z</time>
      </trkpt>
      <trkpt lat="47.75635" lon="7.01448">
        <ele>381</ele>
        <time>2015-08-09T10:05:50Z</time>
      </trkpt>
      <trkpt lat="47.7563" lon="7.01454">
        <ele>381</ele>
        <time>2015-08-09T10:05:54Z</time>
      </trkpt>
      <trkpt lat="47.7562" lon="7.01464">
        <ele>383.8</ele>
        <time>2015-08-09T10:06:03Z</time>
      </trkpt>
      <trkpt lat="47.75617" lon="7.0147">
        <ele>384</ele>
        <time>2015-08-09T10:06:08Z</time>
      </trkpt>
      <trkpt lat="47.75614" lon="7.01476">
        <ele>385</ele>
        <time>2015-08-09T10:06:12Z</time>
      </trkpt>
      <trkpt lat="47.75611" lon="7.01489">
        <ele>385</ele>
        <time>2015-08-09T10:06:17Z</time>
      </trkpt>
      <trkpt lat="47.75609" lon="7.01496">
        <ele>386</ele>
        <time>2015-08-09T10:06:22Z</time>
      </trkpt>
      <trkpt lat="47.75606" lon="7.01503">
        <ele>386</ele>
        <time>2015-08-09T10:06:27Z</time>
      </trkpt>
      <trkpt lat="47.75602" lon="7.01509">
        <ele>386</ele>
        <time>2015-08-09T10:06:32Z</time>
      </trkpt>
      <trkpt lat="47.756" lon="7.01514">
        <ele>386</ele>
        <time>2015-08-09T10:06:38Z</time>
      </trkpt>
      <trkpt lat="47.75598" lon="7.01522">
        <ele>386</ele>
        <time>2015-08-09T10:06:43Z</time>
      </trkpt>
      <trkpt lat="47.75595" lon="7.01528">
        <ele>386</ele>
        <time>2015-08-09T10:06:47Z</time>
      </trkpt>
      <trkpt lat="47.7559" lon="7.01541">
        <ele>386</ele>
        <time>2015-08-09T10:06:53Z</time>
      </trkpt>
      <trkpt lat="47.75586" lon="7.01547">
        <ele>386</ele>
        <time>2015-08-09T10:06:58Z</time>
      </trkpt>
      <trkpt lat="47.75583" lon="7.01552">
        <ele>386</ele>
        <time>2015-08-09T10:07:02Z</time>
      </trkpt>
      <trkpt lat="47.75578" lon="7.01554">
        <ele>386</ele>
        <time>2015-08-09T10:07:07Z</time>
      </trkpt>
      <trkpt lat="47.75575" lon="7.01559">
        <ele>385.2</ele>
        <time>2015-08-09T10:07:11Z</time>
      </trkpt>
      <trkpt lat="47.75572" lon="7.01566">
        <ele>385</ele>
        <time>2015-08-09T10:07:14Z</time>
      </trkpt>
      <trkpt lat="47.75572" lon="7.01574">
        <ele>385</ele>
        <time>2015-08-09T10:07:17Z</time>
      </trkpt>
      <trkpt lat="47.75569" lon="7.01594">
        <ele>385</ele>
        <time>2015-08-09T10:07:27Z</time>
      </trkpt>
      <trkpt lat="47.75566" lon="7.01607">
        <ele>381.1</ele>
        <time>2015-08-09T10:07:35Z</time>
      </trkpt>
      <trkpt lat="47.75573" lon="7.01621">
        <ele>380</ele>
        <time>2015-08-09T10:07:43Z</time>
      </trkpt>
      <trkpt lat="47.75582" lon="7.01628">
        <ele>380</ele>
        <time>2015-08-09T10:07:51Z</time>
      </trkpt>
      <trkpt lat="47.75586" lon="7.01633">
        <ele>380</ele>
        <time>2015-08-09T10:07:55Z</time>
      </trkpt>
      <trkpt lat="47.75592" lon="7.01638">
        <ele>380</ele>
        <time>2015-08-09T10:07:59Z</time>
      </trkpt>
      <trkpt lat="47.75596" lon="7.01642">
        <ele>380</ele>
        <time>2015-08-09T10:08:04Z</time>
      </trkpt>
      <trkpt lat="47.756" lon="7.01646">
        <ele>380</ele>
        <time>2015-08-09T10:08:08Z</time>
      </trkpt>
      <trkpt lat="47.75609" lon="7.01648">
        <ele>380.5</ele>
        <time>2015-08-09T10:08:16Z</time>
      </trkpt>
      <trkpt lat="47.75614" lon="7.0165">
        <ele>381</ele>
        <time>2015-08-09T10:08:19Z</time>
      </trkpt>
      <trkpt lat="47.75623" lon="7.01657">
        <ele>381.7</ele>
        <time>2015-08-09T10:08:25Z</time>
      </trkpt>
      <trkpt lat="47.75627" lon="7.0166">
        <ele>382</ele>
        <time>2015-08-09T10:08:30Z</time>
      </trkpt>
      <trkpt lat="47.75631" lon="7.01664">
        <ele>382</ele>
        <time>2015-08-09T10:08:35Z</time>
      </trkpt>
      <trkpt lat="47.75636" lon="7.01666">
        <ele>382.5</ele>
        <time>2015-08-09T10:08:41Z</time>
      </trkpt>
      <trkpt lat="47.75646" lon="7.01672">
        <ele>383.5</ele>
        <time>2015-08-09T10:08:49Z</time>
      </trkpt>
      <trkpt lat="47.75656" lon="7.01672">
        <ele>384.9</ele>
        <time>2015-08-09T10:08:55Z</time>
      </trkpt>
      <trkpt lat="47.7566" lon="7.01669">
        <ele>385</ele>
        <time>2015-08-09T10:08:59Z</time>
      </trkpt>
      <trkpt lat="47.75668" lon="7.01658">
        <ele>386</ele>
        <time>2015-08-09T10:09:06Z</time>
      </trkpt>
      <trkpt lat="47.75673" lon="7.01657">
        <ele>386</ele>
        <time>2015-08-09T10:09:10Z</time>
      </trkpt>
      <trkpt lat="47.75678" lon="7.01658">
        <ele>386</ele>
        <time>2015-08-09T10:09:15Z</time>
      </trkpt>
      <trkpt lat="47.75682" lon="7.01663">
        <ele>387</ele>
        <time>2015-08-09T10:09:19Z</time>
      </trkpt>
      <trkpt lat="47.75681" lon="7.0167">
        <ele>387</ele>
        <time>2015-08-09T10:09:23Z</time>
      </trkpt>
      <trkpt lat="47.75673" lon="7.01691">
        <ele>387</ele>
        <time>2015-08-09T10:09:29Z</time>
      </trkpt>
      <trkpt lat="47.75667" lon="7.01703">
        <ele>387</ele>
        <time>2015-08-09T10:09:36Z</time>
      </trkpt>
      <trkpt lat="47.75663" lon="7.01708">
        <ele>387</ele>
        <time>2015-08-09T10:09:42Z</time>
      </trkpt>
      <trkpt lat="47.75659" lon="7.01721">
        <ele>386.5</ele>
        <time>2015-08-09T10:09:49Z</time>
      </trkpt>
      <trkpt lat="47.75654" lon="7.01723">
        <ele>385.4</ele>
        <time>2015-08-09T10:09:53Z</time>
      </trkpt>
      <trkpt lat="47.7565" lon="7.01724">
        <ele>380.8</ele>
        <time>2015-08-09T10:09:58Z</time>
      </trkpt>
      <trkpt lat="47.75649" lon="7.01731">
        <ele>380.8</ele>
        <time>2015-08-09T10:10:00Z</time>
      </trkpt>
      <trkpt lat="47.75649" lon="7.01738">
        <ele>379</ele>
        <time>2015-08-09T10:10:02Z</time>
      </trkpt>
      <trkpt lat="47.7565" lon="7.01746">
        <ele>379</ele>
        <time>2015-08-09T10:10:05Z</time>
      </trkpt>
      <trkpt lat="47.75649" lon="7.0176">
        <ele>379</ele>
        <time>2015-08-09T10:10:11Z</time>
      </trkpt>
      <trkpt lat="47.75647" lon="7.01768">
        <ele>379</ele>
        <time>2015-08-09T10:10:16Z</time>
      </trkpt>
      <trkpt lat="47.75646" lon="7.01775">
        <ele>379</ele>
        <time>2015-08-09T10:10:21Z</time>
      </trkpt>
      <trkpt lat="47.75641" lon="7.01785">
        <ele>379</ele>
        <time>2015-08-09T10:10:26Z</time>
      </trkpt>
      <trkpt lat="47.75638" lon="7.01789">
        <ele>379</ele>
        <time>2015-08-09T10:10:29Z</time>
      </trkpt>
      <trkpt lat="47.75636" lon="7.01797">
        <ele>379.5</ele>
        <time>2015-08-09T10:10:35Z</time>
      </trkpt>
      <trkpt lat="47.75633" lon="7.01804">
        <ele>380.9</ele>
        <time>2015-08-09T10:10:40Z</time>
      </trkpt>
      <trkpt lat="47.75628" lon="7.01815">
        <ele>381.5</ele>
        <time>2015-08-09T10:10:46Z</time>
      </trkpt>
      <trkpt lat="47.75625" lon="7.0182">
        <ele>382</ele>
        <time>2015-08-09T10:10:50Z</time>
      </trkpt>
      <trkpt lat="47.75626" lon="7.01834">
        <ele>382</ele>
        <time>2015-08-09T10:11:00Z</time>
      </trkpt>
      <trkpt lat="47.75629" lon="7.0184">
        <ele>382</ele>
        <time>2015-08-09T10:11:04Z</time>
      </trkpt>
      <trkpt lat="47.75626" lon="7.01846">
        <ele>382</ele>
        <time>2015-08-09T10:11:10Z</time>
      </trkpt>
      <trkpt lat="47.75617" lon="7.01854">
        <ele>381.1</ele>
        <time>2015-08-09T10:11:17Z</time>
      </trkpt>
      <trkpt lat="47.75611" lon="7.01864">
        <ele>381</ele>
        <time>2015-08-09T10:11:24Z</time>
      </trkpt>
      <trkpt lat="47.75612" lon="7.01873">
        <ele>380</ele>
        <time>2015-08-09T10:11:31Z</time>
      </trkpt>
      <trkpt lat="47.75605" lon="7.01873">
        <ele>380</ele>
        <time>2015-08-09T10:11:35Z</time>
      </trkpt>
      <trkpt lat="47.75603" lon="7.0188">
        <ele>380</ele>
        <time>2015-08-09T10:11:39Z</time>
      </trkpt>
      <trkpt lat="47.75606" lon="7.0189">
        <ele>380</ele>
        <time>2015-08-09T10:11:45Z</time>
      </trkpt>
      <trkpt lat="47.75607" lon="7.01898">
        <ele>380</ele>
        <time>2015-08-09T10:11:48Z</time>
      </trkpt>
      <trkpt lat="47.75607" lon="7.01904">
        <ele>380</ele>
        <time>2015-08-09T10:11:52Z</time>
      </trkpt>
      <trkpt lat="47.75605" lon="7.01912">
        <ele>379</ele>
        <time>2015-08-09T10:11:59Z</time>
      </trkpt>
      <trkpt lat="47.75604" lon="7.01919">
        <ele>379</ele>
        <time>2015-08-09T10:12:02Z</time>
      </trkpt>
      <trkpt lat="47.75606" lon="7.01934">
        <ele>379.8</ele>
        <time>2015-08-09T10:12:08Z</time>
      </trkpt>
      <trkpt lat="47.75606" lon="7.01934">
        <ele>380</ele>
        <time>2015-08-09T10:12:08Z</time>
      </trkpt>
      <trkpt lat="47.75606" lon="7.01934">
        <ele>380</ele>
        <time>2015-08-09T10:12:10Z</time>
      </trkpt>
    </trkseg>
  </trk>
</gpx>